AFR671 FMEE-LFPO
Flight info
| Callsign | AFR671 |
|---|---|
| Flight time | N/A |
| Altitude | 38000 |
| Route | UVENA2J UVENA UN304 DWA DCT XADOX DCT KONET UG650 RASKA T513 EGMEG G660 JDW L677 CVO L617 TANSA UL613 KOR DCT TUMBO DCT OVVER DCT RODON DCT VAKSU DCT BAXON DCT CERVI DCT MOLUS DCT UNKIR DCT DJL |
| Aircraft | B77W/H-SDE1E2E3FGHIJ2J3J4J5M1RWXY/LB1D1 |
Departure
| Time | 2026-04-20 13:43 |
|---|---|
| Airport | Roland Garros Airport (FMEE) |
Arrival
| Time | N/A |
|---|---|
| Airport | Paris-Orly Airport (LFPO) |
| Time | Latitude | Longitude | Altitude | Speed | Heading |
|---|---|---|---|---|---|
| 2026-04-20 13:29 | -20.88989 | 55.51215 | 85 ft | 4 kts | 242° |
| 2026-04-20 13:30 | -20.88982 | 55.51238 | 85 ft | 4 kts | 271° |
| 2026-04-20 13:30 | -20.88986 | 55.51263 | 85 ft | 4 kts | 296° |
| 2026-04-20 13:30 | -20.89000 | 55.51287 | 85 ft | 4 kts | 308° |
| 2026-04-20 13:30 | -20.89017 | 55.51309 | 85 ft | 4 kts | 309° |
| 2026-04-20 13:31 | -20.89032 | 55.51331 | 85 ft | 2 kts | 297° |
| 2026-04-20 13:31 | -20.89033 | 55.51332 | 85 ft | 7 kts | 296° |
| 2026-04-20 13:34 | -20.89033 | 55.51333 | 85 ft | 0 kts | 296° |
| 2026-04-20 13:34 | -20.89023 | 55.51312 | 85 ft | 8 kts | 297° |
| 2026-04-20 13:35 | -20.88987 | 55.51235 | 85 ft | 13 kts | 299° |
| 2026-04-20 13:35 | -20.88917 | 55.51183 | 85 ft | 13 kts | 335° |
| 2026-04-20 13:35 | -20.88824 | 55.51141 | 62 ft | 19 kts | 340° |
| 2026-04-20 13:35 | -20.88719 | 55.51053 | 62 ft | 20 kts | 297° |
| 2026-04-20 13:36 | -20.88656 | 55.50920 | 55 ft | 20 kts | 296° |
| 2026-04-20 13:36 | -20.88594 | 55.50786 | 53 ft | 20 kts | 296° |
| 2026-04-20 13:36 | -20.88530 | 55.50653 | 50 ft | 20 kts | 297° |
| 2026-04-20 13:36 | -20.88462 | 55.50523 | 47 ft | 20 kts | 311° |
| 2026-04-20 13:37 | -20.88414 | 55.50464 | 47 ft | 4 kts | 269° |
| 2026-04-20 13:37 | -20.88435 | 55.50457 | 46 ft | 4 kts | 157° |
| 2026-04-20 13:37 | -20.88450 | 55.50482 | 51 ft | 4 kts | 121° |
| 2026-04-20 13:37 | -20.88460 | 55.50500 | 49 ft | 0 kts | 119° |
| 2026-04-20 13:38 | -20.88475 | 55.50535 | 46 ft | 12 kts | 114° |
| 2026-04-20 13:38 | -20.88511 | 55.50619 | 52 ft | 12 kts | 115° |
| 2026-04-20 13:38 | -20.88545 | 55.50705 | 53 ft | 12 kts | 112° |
| 2026-04-20 13:39 | -20.88579 | 55.50790 | 53 ft | 12 kts | 114° |
| 2026-04-20 13:39 | -20.88618 | 55.50872 | 52 ft | 12 kts | 121° |
| 2026-04-20 13:39 | -20.88671 | 55.50880 | 55 ft | 7 kts | 232° |
| 2026-04-20 13:39 | -20.88670 | 55.50820 | 56 ft | 10 kts | 278° |
| 2026-04-20 13:40 | -20.88653 | 55.50733 | 58 ft | 13 kts | 282° |
| 2026-04-20 13:40 | -20.88635 | 55.50641 | 53 ft | 13 kts | 282° |
| 2026-04-20 13:40 | -20.88603 | 55.50556 | 50 ft | 13 kts | 302° |
| 2026-04-20 13:40 | -20.88582 | 55.50494 | 52 ft | 0 kts | 253° |
| 2026-04-20 13:41 | -20.88583 | 55.50492 | 53 ft | 0 kts | 252° |
| 2026-04-20 13:41 | -20.88584 | 55.50489 | 53 ft | 0 kts | 252° |
| 2026-04-20 13:41 | -20.88592 | 55.50483 | 50 ft | 4 kts | 209° |
| 2026-04-20 13:41 | -20.88608 | 55.50499 | 51 ft | 4 kts | 96° |
| 2026-04-20 13:42 | -20.88609 | 55.50529 | 52 ft | 4 kts | 101° |
| 2026-04-20 13:42 | -20.88705 | 55.50991 | 58 ft | 81 kts | 101° |
| 2026-04-20 13:42 | -20.88865 | 55.51782 | 56 ft | 135 kts | 102° |
| 2026-04-20 13:43 | -20.89097 | 55.52910 | 50 ft | 175 kts | 103° |
| 2026-04-20 13:43 | -20.89392 | 55.54196 | 445 ft | 171 kts | 102° |
| 2026-04-20 13:43 | -20.89595 | 55.55432 | 812 ft | 173 kts | 86° |
| 2026-04-20 13:43 | -20.89183 | 55.56679 | 1082 ft | 186 kts | 52° |
| 2026-04-20 13:44 | -20.88121 | 55.57540 | 1289 ft | 204 kts | 24° |
| 2026-04-20 13:44 | -20.86676 | 55.57753 | 1596 ft | 213 kts | 354° |
| 2026-04-20 13:44 | -20.85236 | 55.57354 | 1925 ft | 217 kts | 348° |
| 2026-04-20 13:44 | -20.83779 | 55.56900 | 2257 ft | 223 kts | 347° |
| 2026-04-20 13:45 | -20.82261 | 55.56423 | 2529 ft | 230 kts | 349° |
| 2026-04-20 13:45 | -20.80661 | 55.56046 | 2744 ft | 244 kts | 353° |
| 2026-04-20 13:45 | -20.78935 | 55.55780 | 2871 ft | 259 kts | 355° |
| 2026-04-20 13:45 | -20.77117 | 55.55512 | 3228 ft | 268 kts | 352° |
| 2026-04-20 13:46 | -20.75306 | 55.54969 | 3761 ft | 271 kts | 342° |
| 2026-04-20 13:46 | -20.73529 | 55.54243 | 4300 ft | 273 kts | 339° |
| 2026-04-20 13:46 | -20.71801 | 55.53413 | 4899 ft | 274 kts | 338° |
| 2026-04-20 13:46 | -20.70054 | 55.52584 | 5419 ft | 275 kts | 340° |
| 2026-04-20 13:47 | -20.68327 | 55.51800 | 6006 ft | 274 kts | 340° |
| 2026-04-20 13:47 | -20.66553 | 55.50970 | 6474 ft | 280 kts | 338° |
| 2026-04-20 13:47 | -20.64786 | 55.50080 | 6968 ft | 281 kts | 337° |
| 2026-04-20 13:47 | -20.63021 | 55.49181 | 7486 ft | 282 kts | 337° |
| 2026-04-20 13:48 | -20.61245 | 55.48276 | 8019 ft | 282 kts | 337° |
| 2026-04-20 13:48 | -20.59469 | 55.47374 | 8548 ft | 283 kts | 338° |
| 2026-04-20 13:48 | -20.57683 | 55.46469 | 8994 ft | 286 kts | 337° |
| 2026-04-20 13:48 | -20.55878 | 55.45554 | 9478 ft | 288 kts | 337° |
| 2026-04-20 13:49 | -20.54061 | 55.44635 | 9967 ft | 290 kts | 336° |
| 2026-04-20 13:49 | -20.52214 | 55.43698 | 10304 ft | 297 kts | 336° |
| 2026-04-20 13:49 | -20.50330 | 55.42746 | 10473 ft | 312 kts | 336° |
| 2026-04-20 13:49 | -20.48314 | 55.41731 | 10649 ft | 328 kts | 336° |
| 2026-04-20 13:50 | -20.46193 | 55.40668 | 10781 ft | 346 kts | 336° |
| 2026-04-20 13:50 | -20.43947 | 55.39545 | 10916 ft | 365 kts | 336° |
| 2026-04-20 13:50 | -20.41600 | 55.38377 | 11172 ft | 378 kts | 336° |
| 2026-04-20 13:50 | -20.39204 | 55.37181 | 11753 ft | 382 kts | 336° |
| 2026-04-20 13:51 | -20.36800 | 55.35977 | 12497 ft | 380 kts | 335° |
| 2026-04-20 13:51 | -20.34378 | 55.34762 | 12965 ft | 390 kts | 335° |
| 2026-04-20 13:51 | -20.31921 | 55.33532 | 13718 ft | 388 kts | 335° |
| 2026-04-20 13:51 | -20.29446 | 55.32291 | 14100 ft | 400 kts | 335° |
| 2026-04-20 13:52 | -20.26913 | 55.31021 | 14620 ft | 401 kts | 335° |
| 2026-04-20 13:52 | -20.24411 | 55.29768 | 15407 ft | 399 kts | 335° |
| 2026-04-20 13:52 | -20.21857 | 55.28489 | 15675 ft | 411 kts | 334° |
| 2026-04-20 13:52 | -20.19313 | 55.27217 | 16441 ft | 407 kts | 334° |
| 2026-04-20 13:53 | -20.16722 | 55.25921 | 16855 ft | 416 kts | 334° |
| 2026-04-20 13:53 | -20.14101 | 55.24610 | 17485 ft | 416 kts | 334° |
| 2026-04-20 13:53 | -20.11452 | 55.23286 | 17896 ft | 425 kts | 334° |
| 2026-04-20 13:53 | -20.08767 | 55.21947 | 18417 ft | 428 kts | 334° |
| 2026-04-20 13:54 | -20.06042 | 55.20590 | 18841 ft | 433 kts | 334° |
| 2026-04-20 13:54 | -20.03303 | 55.19225 | 19330 ft | 436 kts | 334° |
| 2026-04-20 13:54 | -20.00542 | 55.17849 | 19784 ft | 440 kts | 334° |
| 2026-04-20 13:54 | -19.98693 | 55.16928 | 20066 ft | 443 kts | 334° |
| 2026-04-20 13:55 | -19.95905 | 55.15539 | 20615 ft | 444 kts | 334° |
| 2026-04-20 13:55 | -19.92183 | 55.13686 | 21322 ft | 446 kts | 334° |
| 2026-04-20 13:55 | -19.89367 | 55.12284 | 21851 ft | 448 kts | 334° |
| 2026-04-20 13:55 | -19.87490 | 55.11350 | 22134 ft | 451 kts | 334° |
| 2026-04-20 13:56 | -19.84599 | 55.09911 | 22542 ft | 455 kts | 334° |
| 2026-04-20 13:56 | -19.81718 | 55.08479 | 22966 ft | 459 kts | 334° |
| 2026-04-20 13:56 | -19.78864 | 55.07060 | 23451 ft | 460 kts | 334° |
| 2026-04-20 13:56 | -19.75948 | 55.05611 | 23828 ft | 463 kts | 334° |
| 2026-04-20 13:57 | -19.73020 | 55.04158 | 24233 ft | 465 kts | 334° |
| 2026-04-20 13:57 | -19.70070 | 55.02696 | 24571 ft | 469 kts | 334° |
| 2026-04-20 13:57 | -19.67099 | 55.01224 | 24881 ft | 473 kts | 334° |
| 2026-04-20 13:57 | -19.64103 | 54.99739 | 25228 ft | 476 kts | 334° |
| 2026-04-20 13:58 | -19.61088 | 54.98244 | 25547 ft | 480 kts | 334° |
| 2026-04-20 13:58 | -19.58060 | 54.96743 | 25841 ft | 484 kts | 334° |
| 2026-04-20 13:58 | -19.54993 | 54.95224 | 26121 ft | 488 kts | 334° |
| 2026-04-20 13:58 | -19.51908 | 54.93696 | 26421 ft | 491 kts | 334° |
| 2026-04-20 13:59 | -19.48838 | 54.92176 | 26705 ft | 495 kts | 334° |
| 2026-04-20 13:59 | -19.45701 | 54.90624 | 26918 ft | 500 kts | 334° |
| 2026-04-20 13:59 | -19.42539 | 54.89060 | 27207 ft | 502 kts | 334° |
| 2026-04-20 13:59 | -19.39366 | 54.87491 | 27551 ft | 504 kts | 334° |
| 2026-04-20 14:00 | -19.36187 | 54.85921 | 27873 ft | 506 kts | 334° |
| 2026-04-20 14:00 | -19.32979 | 54.84337 | 28169 ft | 508 kts | 334° |
| 2026-04-20 14:00 | -19.29768 | 54.82752 | 28442 ft | 510 kts | 334° |
| 2026-04-20 14:00 | -19.26537 | 54.81157 | 28701 ft | 513 kts | 334° |
| 2026-04-20 14:01 | -19.23293 | 54.79557 | 28965 ft | 515 kts | 334° |
| 2026-04-20 14:01 | -19.20037 | 54.77952 | 29224 ft | 517 kts | 334° |
| 2026-04-20 14:01 | -19.16809 | 54.76361 | 29465 ft | 519 kts | 334° |
| 2026-04-20 14:01 | -19.13483 | 54.74723 | 29696 ft | 521 kts | 334° |
| 2026-04-20 14:02 | -19.10191 | 54.73102 | 29958 ft | 522 kts | 334° |
| 2026-04-20 14:02 | -19.06950 | 54.71507 | 30237 ft | 521 kts | 334° |
| 2026-04-20 14:02 | -19.03664 | 54.69891 | 30562 ft | 520 kts | 334° |
| 2026-04-20 14:02 | -19.00388 | 54.68280 | 30873 ft | 519 kts | 334° |
| 2026-04-20 14:03 | -18.97120 | 54.66674 | 31150 ft | 518 kts | 334° |
| 2026-04-20 14:03 | -18.93857 | 54.65071 | 31418 ft | 517 kts | 334° |
| 2026-04-20 14:03 | -18.90591 | 54.63467 | 31680 ft | 517 kts | 334° |
| 2026-04-20 14:03 | -18.87331 | 54.61867 | 31903 ft | 517 kts | 334° |
| 2026-04-20 14:04 | -18.80779 | 54.58652 | 31996 ft | 518 kts | 334° |
| 2026-04-20 14:04 | -18.74253 | 54.55453 | 31994 ft | 515 kts | 334° |
| 2026-04-20 14:05 | -18.67752 | 54.52270 | 31996 ft | 514 kts | 334° |
| 2026-04-20 14:05 | -18.61308 | 54.49117 | 32000 ft | 514 kts | 334° |
| 2026-04-20 14:06 | -18.54821 | 54.45945 | 31995 ft | 514 kts | 334° |
| 2026-04-20 14:06 | -18.48312 | 54.42765 | 31994 ft | 515 kts | 334° |
| 2026-04-20 14:07 | -18.41802 | 54.39588 | 31994 ft | 516 kts | 334° |
| 2026-04-20 14:07 | -18.35268 | 54.36401 | 31996 ft | 517 kts | 334° |
| 2026-04-20 14:08 | -18.28779 | 54.33240 | 31995 ft | 517 kts | 334° |
| 2026-04-20 14:08 | -18.22243 | 54.30058 | 31992 ft | 517 kts | 334° |
| 2026-04-20 14:09 | -18.15711 | 54.26880 | 31991 ft | 517 kts | 334° |
| 2026-04-20 14:09 | -18.09176 | 54.23704 | 31991 ft | 517 kts | 334° |
| 2026-04-20 14:10 | -18.02653 | 54.20536 | 31990 ft | 516 kts | 334° |
| 2026-04-20 14:10 | -17.96128 | 54.17370 | 31993 ft | 516 kts | 334° |
| 2026-04-20 14:11 | -17.89607 | 54.14208 | 31987 ft | 516 kts | 334° |
| 2026-04-20 14:11 | -17.83084 | 54.11048 | 31986 ft | 516 kts | 334° |
| 2026-04-20 14:12 | -17.76608 | 54.07913 | 31987 ft | 515 kts | 334° |
| 2026-04-20 14:12 | -17.70096 | 54.04763 | 31982 ft | 515 kts | 334° |
| 2026-04-20 14:13 | -17.63584 | 54.01616 | 31984 ft | 515 kts | 334° |
| 2026-04-20 14:13 | -17.57071 | 53.98471 | 31983 ft | 515 kts | 334° |
| 2026-04-20 14:14 | -17.50546 | 53.95323 | 31985 ft | 515 kts | 334° |
| 2026-04-20 14:14 | -17.44022 | 53.92177 | 31981 ft | 515 kts | 334° |
| 2026-04-20 14:15 | -17.37510 | 53.89040 | 31983 ft | 515 kts | 334° |
| 2026-04-20 14:15 | -17.30989 | 53.85901 | 31978 ft | 515 kts | 334° |
| 2026-04-20 14:16 | -17.24476 | 53.82768 | 31980 ft | 515 kts | 334° |
| 2026-04-20 14:16 | -17.17998 | 53.79655 | 31978 ft | 515 kts | 334° |
| 2026-04-20 14:17 | -17.11480 | 53.76525 | 31978 ft | 515 kts | 334° |
| 2026-04-20 14:17 | -17.04970 | 53.73401 | 31981 ft | 514 kts | 334° |
| 2026-04-20 14:18 | -16.98504 | 53.70300 | 31975 ft | 514 kts | 334° |
| 2026-04-20 14:18 | -16.92009 | 53.67188 | 31975 ft | 514 kts | 334° |
| 2026-04-20 14:19 | -16.85502 | 53.64073 | 31973 ft | 514 kts | 334° |
| 2026-04-20 14:19 | -16.79025 | 53.60974 | 31975 ft | 514 kts | 334° |
| 2026-04-20 14:20 | -16.72474 | 53.57842 | 31975 ft | 514 kts | 334° |
| 2026-04-20 14:20 | -16.66018 | 53.54758 | 31973 ft | 514 kts | 333° |
| 2026-04-20 14:21 | -16.59526 | 53.51660 | 31971 ft | 513 kts | 333° |
| 2026-04-20 14:21 | -16.53023 | 53.48557 | 31971 ft | 513 kts | 333° |
| 2026-04-20 14:22 | -16.46526 | 53.45461 | 31970 ft | 513 kts | 333° |
| 2026-04-20 14:22 | -16.40040 | 53.42371 | 31968 ft | 513 kts | 333° |
| 2026-04-20 14:23 | -16.33552 | 53.39283 | 31969 ft | 512 kts | 333° |
| 2026-04-20 14:23 | -16.27058 | 53.36195 | 31969 ft | 512 kts | 333° |
| 2026-04-20 14:24 | -16.20567 | 53.33110 | 31966 ft | 512 kts | 333° |
| 2026-04-20 14:24 | -16.14117 | 53.30048 | 31968 ft | 512 kts | 333° |
| 2026-04-20 14:25 | -16.07650 | 53.26979 | 31967 ft | 511 kts | 333° |
| 2026-04-20 14:25 | -16.01170 | 53.23906 | 31970 ft | 511 kts | 333° |
| 2026-04-20 14:26 | -15.94699 | 53.20840 | 31963 ft | 511 kts | 333° |
| 2026-04-20 14:26 | -15.88232 | 53.17778 | 31966 ft | 510 kts | 333° |
| 2026-04-20 14:27 | -15.81768 | 53.14719 | 31964 ft | 510 kts | 333° |
| 2026-04-20 14:27 | -15.75314 | 53.11667 | 31964 ft | 509 kts | 333° |
| 2026-04-20 14:28 | -15.68907 | 53.08640 | 31961 ft | 509 kts | 333° |
| 2026-04-20 14:28 | -15.62462 | 53.05596 | 31964 ft | 508 kts | 333° |
| 2026-04-20 14:29 | -15.55987 | 53.02541 | 31963 ft | 508 kts | 333° |
| 2026-04-20 14:29 | -15.49591 | 52.99525 | 31960 ft | 508 kts | 333° |
| 2026-04-20 14:30 | -15.43150 | 52.96490 | 31961 ft | 508 kts | 333° |
| 2026-04-20 14:30 | -15.36719 | 52.93461 | 31963 ft | 507 kts | 333° |
| 2026-04-20 14:31 | -15.30281 | 52.90431 | 31962 ft | 507 kts | 333° |
| 2026-04-20 14:31 | -15.23856 | 52.87410 | 31959 ft | 507 kts | 333° |
| 2026-04-20 14:32 | -15.17437 | 52.84394 | 31957 ft | 506 kts | 333° |
| 2026-04-20 14:32 | -15.11017 | 52.81379 | 31959 ft | 506 kts | 333° |
| 2026-04-20 14:33 | -15.04647 | 52.78389 | 31958 ft | 506 kts | 333° |
| 2026-04-20 14:33 | -14.98218 | 52.75374 | 31950 ft | 505 kts | 333° |
| 2026-04-20 14:34 | -14.91813 | 52.72372 | 31950 ft | 505 kts | 333° |
| 2026-04-20 14:34 | -14.85421 | 52.69378 | 31970 ft | 504 kts | 333° |
| 2026-04-20 14:35 | -14.79020 | 52.66381 | 31963 ft | 504 kts | 333° |
| 2026-04-20 14:35 | -14.72621 | 52.63389 | 31957 ft | 504 kts | 333° |
| 2026-04-20 14:36 | -14.66283 | 52.60426 | 31945 ft | 503 kts | 333° |
| 2026-04-20 14:36 | -14.59898 | 52.57443 | 31953 ft | 503 kts | 333° |
| 2026-04-20 14:37 | -14.53529 | 52.54469 | 31955 ft | 502 kts | 333° |
| 2026-04-20 14:37 | -14.47172 | 52.51504 | 31954 ft | 502 kts | 333° |
| 2026-04-20 14:38 | -14.40803 | 52.48534 | 31947 ft | 501 kts | 333° |
| 2026-04-20 14:38 | -14.34454 | 52.45574 | 31952 ft | 501 kts | 333° |
| 2026-04-20 14:39 | -14.28096 | 52.42614 | 31944 ft | 501 kts | 333° |
| 2026-04-20 14:39 | -14.21748 | 52.39659 | 31952 ft | 501 kts | 333° |
| 2026-04-20 14:40 | -14.15435 | 52.36723 | 31947 ft | 500 kts | 333° |
| 2026-04-20 14:40 | -14.09087 | 52.33772 | 31955 ft | 500 kts | 333° |
| 2026-04-20 14:41 | -14.02748 | 52.30827 | 31951 ft | 500 kts | 333° |
| 2026-04-20 14:41 | -13.96391 | 52.27876 | 31945 ft | 500 kts | 333° |
| 2026-04-20 14:42 | -13.90054 | 52.24936 | 31944 ft | 499 kts | 333° |
| 2026-04-20 14:42 | -13.83756 | 52.22015 | 31948 ft | 499 kts | 333° |
| 2026-04-20 14:43 | -13.77425 | 52.19081 | 31939 ft | 499 kts | 333° |
| 2026-04-20 14:43 | -13.71095 | 52.16149 | 31942 ft | 498 kts | 333° |
| 2026-04-20 14:44 | -13.65836 | 52.13714 | 31947 ft | 498 kts | 333° |
| 2026-04-20 14:44 | -13.59514 | 52.10790 | 31944 ft | 498 kts | 333° |
| 2026-04-20 14:45 | -13.53187 | 52.07864 | 31946 ft | 498 kts | 333° |
| 2026-04-20 14:45 | -13.46873 | 52.04947 | 31946 ft | 497 kts | 333° |
| 2026-04-20 14:46 | -13.40588 | 52.02044 | 31939 ft | 497 kts | 333° |
| 2026-04-20 14:46 | -13.34273 | 51.99129 | 31942 ft | 497 kts | 333° |
| 2026-04-20 14:47 | -13.27964 | 51.96219 | 31945 ft | 497 kts | 333° |
| 2026-04-20 14:48 | -13.18499 | 51.91856 | 31944 ft | 496 kts | 333° |
| 2026-04-20 14:48 | -13.12240 | 51.88972 | 31944 ft | 496 kts | 333° |
| 2026-04-20 14:49 | -13.05908 | 51.86057 | 31939 ft | 495 kts | 333° |
| 2026-04-20 14:49 | -12.99654 | 51.83179 | 31934 ft | 495 kts | 333° |
| 2026-04-20 14:50 | -12.93393 | 51.80299 | 31934 ft | 495 kts | 333° |
| 2026-04-20 14:50 | -12.87096 | 51.77405 | 31935 ft | 495 kts | 333° |
| 2026-04-20 14:51 | -12.80812 | 51.74519 | 31937 ft | 494 kts | 333° |
| 2026-04-20 14:51 | -12.74522 | 51.71630 | 31935 ft | 494 kts | 333° |
| 2026-04-20 14:52 | -12.68281 | 51.68767 | 31937 ft | 494 kts | 333° |
| 2026-04-20 14:52 | -12.62004 | 51.65888 | 31934 ft | 495 kts | 333° |
| 2026-04-20 14:53 | -12.55709 | 51.63003 | 31933 ft | 495 kts | 333° |
| 2026-04-20 14:53 | -12.49424 | 51.60123 | 31932 ft | 495 kts | 333° |
| 2026-04-20 14:54 | -12.43134 | 51.57243 | 31932 ft | 495 kts | 333° |
| 2026-04-20 14:54 | -12.36846 | 51.54365 | 31930 ft | 495 kts | 333° |
| 2026-04-20 14:55 | -12.30560 | 51.51490 | 31930 ft | 495 kts | 333° |
| 2026-04-20 14:55 | -12.24301 | 51.48628 | 31932 ft | 495 kts | 333° |
| 2026-04-20 14:56 | -12.18009 | 51.45754 | 31932 ft | 495 kts | 333° |
| 2026-04-20 14:56 | -12.11728 | 51.42885 | 31926 ft | 494 kts | 333° |
| 2026-04-20 14:57 | -12.05441 | 51.40015 | 31927 ft | 494 kts | 333° |
| 2026-04-20 14:57 | -11.99160 | 51.37150 | 31929 ft | 494 kts | 333° |
| 2026-04-20 14:58 | -11.92911 | 51.34301 | 31926 ft | 494 kts | 333° |
| 2026-04-20 14:58 | -11.86629 | 51.31437 | 31923 ft | 494 kts | 333° |
| 2026-04-20 14:59 | -11.80351 | 51.28578 | 31923 ft | 494 kts | 333° |
| 2026-04-20 14:59 | -11.74067 | 51.25717 | 31925 ft | 494 kts | 333° |
| 2026-04-20 15:00 | -11.67781 | 51.22856 | 31925 ft | 494 kts | 333° |
| 2026-04-20 15:00 | -11.61504 | 51.20001 | 31937 ft | 494 kts | 333° |
| 2026-04-20 15:01 | -11.55257 | 51.17161 | 31931 ft | 494 kts | 333° |
| 2026-04-20 15:01 | -11.48976 | 51.14307 | 31925 ft | 494 kts | 333° |
| 2026-04-20 15:02 | -11.42688 | 51.11451 | 31908 ft | 494 kts | 333° |
| 2026-04-20 15:02 | -11.36399 | 51.08596 | 31908 ft | 494 kts | 333° |
| 2026-04-20 15:03 | -11.30114 | 51.05745 | 31927 ft | 494 kts | 333° |
| 2026-04-20 15:03 | -11.23878 | 51.02916 | 31921 ft | 494 kts | 333° |
| 2026-04-20 15:04 | -11.17593 | 51.00068 | 31921 ft | 494 kts | 333° |
| 2026-04-20 15:04 | -11.11307 | 50.97219 | 31928 ft | 494 kts | 333° |
| 2026-04-20 15:05 | -11.05011 | 50.94368 | 31918 ft | 494 kts | 333° |
| 2026-04-20 15:05 | -10.98739 | 50.91529 | 31915 ft | 494 kts | 333° |
| 2026-04-20 15:06 | -10.92447 | 50.88682 | 31918 ft | 494 kts | 333° |
| 2026-04-20 15:06 | -10.86165 | 50.85841 | 31917 ft | 494 kts | 333° |
| 2026-04-20 15:07 | -10.79916 | 50.83017 | 31919 ft | 494 kts | 333° |
| 2026-04-20 15:07 | -10.73632 | 50.80178 | 31918 ft | 494 kts | 333° |
| 2026-04-20 15:08 | -10.67342 | 50.77337 | 31917 ft | 494 kts | 333° |
| 2026-04-20 15:08 | -10.61061 | 50.74502 | 31914 ft | 494 kts | 333° |
| 2026-04-20 15:09 | -10.54779 | 50.71667 | 31915 ft | 494 kts | 333° |
| 2026-04-20 15:09 | -10.48498 | 50.68835 | 31910 ft | 494 kts | 333° |
| 2026-04-20 15:10 | -10.42236 | 50.66011 | 31911 ft | 494 kts | 333° |
| 2026-04-20 15:10 | -10.35954 | 50.63181 | 31911 ft | 494 kts | 333° |
| 2026-04-20 15:11 | -10.29679 | 50.60354 | 31912 ft | 493 kts | 333° |
| 2026-04-20 15:11 | -10.23393 | 50.57524 | 31911 ft | 493 kts | 333° |
| 2026-04-20 15:12 | -10.17113 | 50.54698 | 31912 ft | 493 kts | 334° |
| 2026-04-20 15:12 | -10.10843 | 50.51877 | 31911 ft | 493 kts | 334° |
| 2026-04-20 15:13 | -10.04611 | 50.49074 | 31909 ft | 493 kts | 333° |
| 2026-04-20 15:13 | -9.98344 | 50.46261 | 31911 ft | 493 kts | 334° |
| 2026-04-20 15:14 | -9.92045 | 50.43486 | 31911 ft | 493 kts | 334° |
| 2026-04-20 15:14 | -9.85749 | 50.40731 | 31908 ft | 493 kts | 334° |
| 2026-04-20 15:15 | -9.79462 | 50.37975 | 31911 ft | 492 kts | 334° |
| 2026-04-20 15:15 | -9.73166 | 50.35211 | 31905 ft | 492 kts | 334° |
| 2026-04-20 15:16 | -9.66875 | 50.32448 | 31903 ft | 492 kts | 334° |
| 2026-04-20 15:16 | -9.60596 | 50.29692 | 31906 ft | 492 kts | 334° |
| 2026-04-20 15:17 | -9.54316 | 50.26936 | 31906 ft | 491 kts | 334° |
| 2026-04-20 15:17 | -9.48039 | 50.24183 | 31903 ft | 491 kts | 334° |
| 2026-04-20 15:18 | -9.41803 | 50.21450 | 31903 ft | 491 kts | 334° |
| 2026-04-20 15:18 | -9.35521 | 50.18697 | 31901 ft | 491 kts | 334° |
| 2026-04-20 15:19 | -9.29252 | 50.15950 | 31903 ft | 491 kts | 334° |
| 2026-04-20 15:19 | -9.22986 | 50.13207 | 31901 ft | 490 kts | 334° |
| 2026-04-20 15:20 | -9.16754 | 50.10479 | 31901 ft | 490 kts | 334° |
| 2026-04-20 15:20 | -9.10496 | 50.07741 | 31897 ft | 490 kts | 334° |
| 2026-04-20 15:21 | -9.04227 | 50.04999 | 31896 ft | 490 kts | 334° |
| 2026-04-20 15:21 | -8.97954 | 50.02257 | 31899 ft | 490 kts | 334° |
| 2026-04-20 15:22 | -8.91697 | 49.99522 | 31901 ft | 490 kts | 334° |
| 2026-04-20 15:22 | -8.85429 | 49.96783 | 31898 ft | 490 kts | 334° |
| 2026-04-20 15:23 | -8.79160 | 49.94046 | 31901 ft | 490 kts | 334° |
| 2026-04-20 15:23 | -8.72907 | 49.91316 | 31898 ft | 490 kts | 334° |
| 2026-04-20 15:24 | -8.66671 | 49.88595 | 31898 ft | 490 kts | 334° |
| 2026-04-20 15:24 | -8.60410 | 49.85864 | 31903 ft | 490 kts | 334° |
| 2026-04-20 15:25 | -8.54135 | 49.83127 | 31901 ft | 491 kts | 334° |
| 2026-04-20 15:25 | -8.47858 | 49.80391 | 31899 ft | 491 kts | 334° |
| 2026-04-20 15:26 | -8.41588 | 49.77659 | 31900 ft | 491 kts | 335° |
| 2026-04-20 15:26 | -8.35307 | 49.74923 | 31896 ft | 491 kts | 335° |
| 2026-04-20 15:27 | -8.29072 | 49.72208 | 31899 ft | 491 kts | 335° |
| 2026-04-20 15:27 | -8.22794 | 49.69475 | 31896 ft | 491 kts | 335° |
| 2026-04-20 15:28 | -8.16513 | 49.66742 | 31896 ft | 491 kts | 335° |
| 2026-04-20 15:28 | -8.10230 | 49.64009 | 31895 ft | 491 kts | 335° |
| 2026-04-20 15:29 | -8.03947 | 49.61277 | 31897 ft | 491 kts | 335° |
| 2026-04-20 15:29 | -7.97673 | 49.58550 | 31894 ft | 491 kts | 335° |
| 2026-04-20 15:30 | -7.91391 | 49.55820 | 31895 ft | 491 kts | 335° |
| 2026-04-20 15:30 | -7.85155 | 49.53111 | 31894 ft | 491 kts | 335° |
| 2026-04-20 15:31 | -7.78879 | 49.50386 | 31895 ft | 491 kts | 335° |
| 2026-04-20 15:31 | -7.72593 | 49.47656 | 31894 ft | 491 kts | 335° |
| 2026-04-20 15:32 | -7.66308 | 49.44929 | 31893 ft | 491 kts | 335° |
| 2026-04-20 15:32 | -7.61082 | 49.42661 | 31893 ft | 491 kts | 335° |
| 2026-04-20 15:33 | -7.53776 | 49.39493 | 31893 ft | 491 kts | 335° |
| 2026-04-20 15:33 | -7.48547 | 49.37225 | 31892 ft | 491 kts | 335° |
| 2026-04-20 15:34 | -7.42270 | 49.34504 | 31890 ft | 491 kts | 335° |
| 2026-04-20 15:34 | -7.35986 | 49.31781 | 31892 ft | 490 kts | 335° |
| 2026-04-20 15:35 | -7.29756 | 49.29082 | 31894 ft | 490 kts | 335° |
| 2026-04-20 15:35 | -7.23482 | 49.26365 | 31893 ft | 490 kts | 335° |
| 2026-04-20 15:36 | -7.17220 | 49.23654 | 31893 ft | 490 kts | 335° |
| 2026-04-20 15:36 | -7.10945 | 49.20937 | 31891 ft | 490 kts | 335° |
| 2026-04-20 15:37 | -7.04679 | 49.18225 | 31888 ft | 490 kts | 335° |
| 2026-04-20 15:37 | -6.98402 | 49.15511 | 31891 ft | 490 kts | 335° |
| 2026-04-20 15:38 | -6.92172 | 49.12816 | 31892 ft | 490 kts | 335° |
| 2026-04-20 15:38 | -6.85913 | 49.10109 | 31893 ft | 490 kts | 335° |
| 2026-04-20 15:39 | -6.79649 | 49.07399 | 31895 ft | 489 kts | 335° |
| 2026-04-20 15:39 | -6.73399 | 49.04696 | 31893 ft | 489 kts | 335° |
| 2026-04-20 15:40 | -6.67159 | 49.01998 | 31891 ft | 489 kts | 335° |
| 2026-04-20 15:40 | -6.60887 | 48.99288 | 31892 ft | 490 kts | 335° |
| 2026-04-20 15:41 | -6.54616 | 48.96579 | 31895 ft | 490 kts | 335° |
| 2026-04-20 15:41 | -6.48349 | 48.93871 | 31897 ft | 491 kts | 335° |
| 2026-04-20 15:42 | -6.42066 | 48.91158 | 31895 ft | 491 kts | 335° |
| 2026-04-20 15:42 | -6.35780 | 48.88444 | 31895 ft | 491 kts | 335° |
| 2026-04-20 15:43 | -6.29533 | 48.85748 | 31893 ft | 492 kts | 335° |
| 2026-04-20 15:43 | -6.23208 | 48.83019 | 31892 ft | 492 kts | 335° |
| 2026-04-20 15:44 | -6.16919 | 48.80306 | 31892 ft | 492 kts | 335° |
| 2026-04-20 15:44 | -6.10666 | 48.77609 | 31893 ft | 492 kts | 335° |
| 2026-04-20 15:45 | -6.04371 | 48.74894 | 31892 ft | 492 kts | 335° |
| 2026-04-20 15:45 | -5.98079 | 48.72182 | 31900 ft | 492 kts | 336° |
| 2026-04-20 15:46 | -5.91782 | 48.69469 | 31895 ft | 492 kts | 336° |
| 2026-04-20 15:46 | -5.85486 | 48.66757 | 31895 ft | 492 kts | 335° |
| 2026-04-20 15:47 | -5.79197 | 48.64048 | 31894 ft | 491 kts | 336° |
| 2026-04-20 15:47 | -5.72913 | 48.61341 | 31895 ft | 491 kts | 336° |
| 2026-04-20 15:48 | -5.66669 | 48.58653 | 31891 ft | 491 kts | 336° |
| 2026-04-20 15:48 | -5.60384 | 48.55948 | 31894 ft | 491 kts | 336° |
| 2026-04-20 15:49 | -5.54108 | 48.53247 | 31896 ft | 491 kts | 336° |
| 2026-04-20 15:49 | -5.47825 | 48.50544 | 31897 ft | 491 kts | 336° |
| 2026-04-20 15:50 | -5.41542 | 48.47841 | 31895 ft | 491 kts | 336° |
| 2026-04-20 15:50 | -5.35261 | 48.45141 | 31891 ft | 491 kts | 336° |
| 2026-04-20 15:51 | -5.28976 | 48.42439 | 31890 ft | 491 kts | 336° |
| 2026-04-20 15:51 | -5.22683 | 48.39734 | 31893 ft | 491 kts | 336° |
| 2026-04-20 15:52 | -5.16404 | 48.37035 | 31893 ft | 491 kts | 336° |
| 2026-04-20 15:52 | -5.10127 | 48.34338 | 31893 ft | 491 kts | 336° |
| 2026-04-20 15:53 | -5.00714 | 48.30296 | 31890 ft | 490 kts | 336° |
| 2026-04-20 15:53 | -4.94471 | 48.27614 | 31892 ft | 491 kts | 336° |
| 2026-04-20 15:54 | -4.88185 | 48.24915 | 31891 ft | 491 kts | 336° |
| 2026-04-20 15:54 | -4.81896 | 48.22216 | 31889 ft | 492 kts | 336° |
| 2026-04-20 15:55 | -4.75622 | 48.19524 | 31889 ft | 493 kts | 336° |
| 2026-04-20 15:55 | -4.69312 | 48.16805 | 31888 ft | 493 kts | 336° |
| 2026-04-20 15:56 | -4.63000 | 48.14101 | 31885 ft | 493 kts | 336° |
| 2026-04-20 15:56 | -4.56680 | 48.11393 | 31883 ft | 494 kts | 336° |
| 2026-04-20 15:57 | -4.50359 | 48.08679 | 31885 ft | 494 kts | 336° |
| 2026-04-20 15:57 | -4.44071 | 48.05985 | 31886 ft | 495 kts | 336° |
| 2026-04-20 15:58 | -4.37706 | 48.03259 | 31881 ft | 495 kts | 336° |
| 2026-04-20 15:58 | -4.31364 | 48.00540 | 31881 ft | 495 kts | 336° |
| 2026-04-20 15:59 | -4.25082 | 47.97849 | 31885 ft | 495 kts | 336° |
| 2026-04-20 15:59 | -4.18749 | 47.95134 | 31886 ft | 495 kts | 336° |
| 2026-04-20 16:00 | -4.12418 | 47.92417 | 31888 ft | 495 kts | 336° |
| 2026-04-20 16:00 | -4.06077 | 47.89695 | 31884 ft | 495 kts | 336° |
| 2026-04-20 16:01 | -3.99753 | 47.86981 | 31878 ft | 495 kts | 336° |
| 2026-04-20 16:01 | -3.93419 | 47.84264 | 31885 ft | 495 kts | 336° |
| 2026-04-20 16:02 | -3.87075 | 47.81544 | 31884 ft | 495 kts | 336° |
| 2026-04-20 16:02 | -3.80790 | 47.78849 | 31886 ft | 495 kts | 336° |
| 2026-04-20 16:03 | -3.74454 | 47.76132 | 31883 ft | 495 kts | 336° |
| 2026-04-20 16:03 | -3.68115 | 47.73416 | 31880 ft | 495 kts | 336° |
| 2026-04-20 16:04 | -3.61784 | 47.70702 | 31879 ft | 495 kts | 336° |
| 2026-04-20 16:04 | -3.55453 | 47.67989 | 31889 ft | 495 kts | 336° |
| 2026-04-20 16:05 | -3.49139 | 47.65284 | 31881 ft | 496 kts | 336° |
| 2026-04-20 16:05 | -3.42795 | 47.62566 | 31881 ft | 496 kts | 336° |
| 2026-04-20 16:06 | -3.36451 | 47.59849 | 31881 ft | 496 kts | 336° |
| 2026-04-20 16:06 | -3.30091 | 47.57126 | 31882 ft | 496 kts | 336° |
| 2026-04-20 16:07 | -3.23739 | 47.54406 | 31882 ft | 497 kts | 336° |
| 2026-04-20 16:07 | -3.17380 | 47.51683 | 31890 ft | 497 kts | 336° |
| 2026-04-20 16:08 | -3.11025 | 47.48963 | 31884 ft | 496 kts | 336° |
| 2026-04-20 16:08 | -3.04705 | 47.46258 | 31881 ft | 496 kts | 336° |
| 2026-04-20 16:09 | -2.98319 | 47.43525 | 31883 ft | 496 kts | 336° |
| 2026-04-20 16:09 | -2.91992 | 47.40818 | 31885 ft | 496 kts | 336° |
| 2026-04-20 16:10 | -2.85641 | 47.38103 | 31884 ft | 496 kts | 336° |
| 2026-04-20 16:10 | -2.79283 | 47.35384 | 31885 ft | 496 kts | 336° |
| 2026-04-20 16:11 | -2.72974 | 47.32686 | 31881 ft | 496 kts | 336° |
| 2026-04-20 16:11 | -2.66622 | 47.29971 | 31882 ft | 496 kts | 336° |
| 2026-04-20 16:12 | -2.60273 | 47.27257 | 31887 ft | 496 kts | 336° |
| 2026-04-20 16:12 | -2.53919 | 47.24541 | 31884 ft | 497 kts | 336° |
| 2026-04-20 16:13 | -2.47559 | 47.21822 | 31887 ft | 497 kts | 336° |
| 2026-04-20 16:13 | -2.41201 | 47.19106 | 31885 ft | 497 kts | 336° |
| 2026-04-20 16:14 | -2.34874 | 47.16402 | 31881 ft | 497 kts | 336° |
| 2026-04-20 16:14 | -2.28474 | 47.13668 | 31883 ft | 497 kts | 336° |
| 2026-04-20 16:15 | -2.22153 | 47.10968 | 31888 ft | 497 kts | 337° |
| 2026-04-20 16:15 | -2.15792 | 47.08250 | 31892 ft | 498 kts | 337° |
| 2026-04-20 16:16 | -2.09419 | 47.05528 | 31887 ft | 498 kts | 337° |
| 2026-04-20 16:16 | -2.03048 | 47.02807 | 31884 ft | 498 kts | 337° |
| 2026-04-20 16:17 | -1.96674 | 47.00085 | 31889 ft | 498 kts | 337° |
| 2026-04-20 16:17 | -1.90306 | 46.97366 | 31888 ft | 498 kts | 337° |
| 2026-04-20 16:18 | -1.83927 | 46.94642 | 31887 ft | 498 kts | 337° |
| 2026-04-20 16:18 | -1.77554 | 46.91921 | 31887 ft | 498 kts | 337° |
| 2026-04-20 16:19 | -1.71186 | 46.89203 | 31891 ft | 498 kts | 337° |
| 2026-04-20 16:19 | -1.64807 | 46.86480 | 31893 ft | 498 kts | 337° |
| 2026-04-20 16:20 | -1.58463 | 46.83771 | 31889 ft | 499 kts | 337° |
| 2026-04-20 16:20 | -1.52076 | 46.81045 | 31885 ft | 499 kts | 337° |
| 2026-04-20 16:21 | -1.45685 | 46.78318 | 31889 ft | 499 kts | 337° |
| 2026-04-20 16:21 | -1.39293 | 46.75590 | 31884 ft | 499 kts | 337° |
| 2026-04-20 16:22 | -1.32930 | 46.72874 | 31883 ft | 500 kts | 337° |
| 2026-04-20 16:22 | -1.27578 | 46.70591 | 31890 ft | 500 kts | 337° |
| 2026-04-20 16:23 | -1.21215 | 46.67875 | 31886 ft | 500 kts | 337° |
| 2026-04-20 16:23 | -1.14808 | 46.65142 | 31890 ft | 500 kts | 337° |
| 2026-04-20 16:24 | -1.08400 | 46.62409 | 31887 ft | 500 kts | 337° |
| 2026-04-20 16:24 | -1.01992 | 46.59680 | 31887 ft | 500 kts | 337° |
| 2026-04-20 16:25 | -0.95582 | 46.56951 | 31887 ft | 500 kts | 337° |
| 2026-04-20 16:25 | -0.89216 | 46.54240 | 31894 ft | 500 kts | 337° |
| 2026-04-20 16:26 | -0.82806 | 46.51510 | 31887 ft | 500 kts | 337° |
| 2026-04-20 16:26 | -0.76398 | 46.48782 | 31887 ft | 500 kts | 337° |
| 2026-04-20 16:27 | -0.70004 | 46.46059 | 31891 ft | 500 kts | 337° |
| 2026-04-20 16:27 | -0.63591 | 46.43328 | 31888 ft | 500 kts | 337° |
| 2026-04-20 16:28 | -0.57199 | 46.40606 | 31888 ft | 500 kts | 337° |
| 2026-04-20 16:28 | -0.50791 | 46.37878 | 31892 ft | 500 kts | 337° |
| 2026-04-20 16:29 | -0.44387 | 46.35151 | 31919 ft | 501 kts | 338° |
| 2026-04-20 16:29 | -0.41208 | 46.33797 | 32099 ft | 502 kts | 337° |
| 2026-04-20 16:29 | -0.38005 | 46.32434 | 32386 ft | 500 kts | 338° |
| 2026-04-20 16:30 | -0.34810 | 46.31074 | 32712 ft | 497 kts | 338° |
| 2026-04-20 16:30 | -0.31638 | 46.29722 | 33023 ft | 495 kts | 338° |
| 2026-04-20 16:30 | -0.28467 | 46.28372 | 33313 ft | 494 kts | 338° |
| 2026-04-20 16:30 | -0.25309 | 46.27028 | 33570 ft | 493 kts | 338° |
| 2026-04-20 16:31 | -0.22153 | 46.25684 | 33792 ft | 492 kts | 338° |
| 2026-04-20 16:31 | -0.18997 | 46.24341 | 33841 ft | 494 kts | 338° |
| 2026-04-20 16:31 | -0.12719 | 46.21616 | 33881 ft | 494 kts | 337° |
| 2026-04-20 16:32 | -0.06442 | 46.18851 | 33886 ft | 492 kts | 337° |
| 2026-04-20 16:32 | -0.00181 | 46.16098 | 33891 ft | 491 kts | 337° |
| 2026-04-20 16:33 | 0.06053 | 46.13363 | 33890 ft | 488 kts | 338° |
| 2026-04-20 16:33 | 0.12274 | 46.10639 | 33879 ft | 487 kts | 338° |
| 2026-04-20 16:34 | 0.18471 | 46.07924 | 33888 ft | 485 kts | 338° |
| 2026-04-20 16:34 | 0.24654 | 46.05215 | 33883 ft | 485 kts | 338° |
| 2026-04-20 16:35 | 0.30841 | 46.02504 | 33885 ft | 485 kts | 338° |
| 2026-04-20 16:35 | 0.36995 | 45.99808 | 33886 ft | 486 kts | 338° |
| 2026-04-20 16:36 | 0.43194 | 45.97092 | 33883 ft | 487 kts | 338° |
| 2026-04-20 16:36 | 0.49393 | 45.94376 | 33879 ft | 487 kts | 338° |
| 2026-04-20 16:37 | 0.55610 | 45.91651 | 33877 ft | 487 kts | 338° |
| 2026-04-20 16:37 | 0.61843 | 45.88957 | 33882 ft | 488 kts | 338° |
| 2026-04-20 16:38 | 0.68074 | 45.86290 | 33881 ft | 487 kts | 338° |
| 2026-04-20 16:38 | 0.74317 | 45.83615 | 33883 ft | 487 kts | 338° |
| 2026-04-20 16:39 | 0.80517 | 45.80953 | 33879 ft | 487 kts | 338° |
| 2026-04-20 16:39 | 0.86743 | 45.78279 | 33879 ft | 487 kts | 338° |
| 2026-04-20 16:40 | 0.92956 | 45.75609 | 33877 ft | 486 kts | 338° |
| 2026-04-20 16:40 | 0.99178 | 45.72936 | 33879 ft | 486 kts | 338° |
| 2026-04-20 16:41 | 1.05388 | 45.70268 | 33880 ft | 486 kts | 338° |
| 2026-04-20 16:41 | 1.11595 | 45.67601 | 33881 ft | 486 kts | 338° |
| 2026-04-20 16:42 | 1.17812 | 45.64929 | 33872 ft | 486 kts | 338° |
| 2026-04-20 16:42 | 1.24014 | 45.62264 | 33881 ft | 486 kts | 338° |
| 2026-04-20 16:43 | 1.30194 | 45.59609 | 33882 ft | 486 kts | 338° |
| 2026-04-20 16:43 | 1.36406 | 45.56939 | 33882 ft | 486 kts | 338° |
| 2026-04-20 16:44 | 1.42624 | 45.54267 | 33879 ft | 486 kts | 338° |
| 2026-04-20 16:44 | 1.48853 | 45.51589 | 33873 ft | 486 kts | 338° |
| 2026-04-20 16:45 | 1.55063 | 45.48921 | 33875 ft | 486 kts | 338° |
| 2026-04-20 16:45 | 1.61243 | 45.46264 | 33878 ft | 486 kts | 338° |
| 2026-04-20 16:46 | 1.67456 | 45.43593 | 33876 ft | 486 kts | 338° |
| 2026-04-20 16:46 | 1.73674 | 45.40920 | 33879 ft | 486 kts | 338° |
| 2026-04-20 16:47 | 1.79893 | 45.38246 | 33875 ft | 486 kts | 338° |
| 2026-04-20 16:47 | 1.86118 | 45.35570 | 33877 ft | 486 kts | 338° |
| 2026-04-20 16:48 | 1.92327 | 45.32900 | 33879 ft | 486 kts | 338° |
| 2026-04-20 16:48 | 1.98542 | 45.30228 | 33878 ft | 486 kts | 338° |
| 2026-04-20 16:49 | 2.04747 | 45.27534 | 33877 ft | 487 kts | 338° |
| 2026-04-20 16:49 | 2.10943 | 45.24781 | 33881 ft | 487 kts | 338° |
| 2026-04-20 16:50 | 2.17096 | 45.22041 | 33874 ft | 487 kts | 338° |
| 2026-04-20 16:50 | 2.23303 | 45.19286 | 33877 ft | 487 kts | 338° |
| 2026-04-20 16:51 | 2.29505 | 45.16538 | 33879 ft | 487 kts | 338° |
| 2026-04-20 16:51 | 2.35702 | 45.13793 | 33878 ft | 487 kts | 338° |
| 2026-04-20 16:52 | 2.41863 | 45.11063 | 33874 ft | 487 kts | 338° |
| 2026-04-20 16:52 | 2.48100 | 45.08299 | 33873 ft | 487 kts | 337° |
| 2026-04-20 16:53 | 2.54256 | 45.05570 | 33872 ft | 487 kts | 337° |
| 2026-04-20 16:53 | 2.60474 | 45.02814 | 33870 ft | 487 kts | 337° |
| 2026-04-20 16:54 | 2.66664 | 45.00070 | 33872 ft | 487 kts | 337° |
| 2026-04-20 16:54 | 2.72856 | 44.97324 | 33870 ft | 487 kts | 337° |
| 2026-04-20 16:55 | 2.79010 | 44.94596 | 33873 ft | 486 kts | 337° |
| 2026-04-20 16:55 | 2.85206 | 44.91848 | 33872 ft | 486 kts | 337° |
| 2026-04-20 16:56 | 2.91397 | 44.89102 | 33874 ft | 486 kts | 337° |
| 2026-04-20 16:56 | 2.97589 | 44.86355 | 33873 ft | 486 kts | 337° |
| 2026-04-20 16:57 | 3.03740 | 44.83626 | 33873 ft | 486 kts | 337° |
| 2026-04-20 16:57 | 3.09925 | 44.80882 | 33873 ft | 486 kts | 337° |
| 2026-04-20 16:58 | 3.16106 | 44.78139 | 33878 ft | 486 kts | 337° |
| 2026-04-20 16:58 | 3.22283 | 44.75398 | 33878 ft | 486 kts | 337° |
| 2026-04-20 16:59 | 3.28471 | 44.72652 | 33877 ft | 486 kts | 337° |
| 2026-04-20 16:59 | 3.34646 | 44.69910 | 33880 ft | 486 kts | 337° |
| 2026-04-20 17:00 | 3.43921 | 44.65792 | 33877 ft | 486 kts | 337° |
| 2026-04-20 17:01 | 3.50105 | 44.63046 | 33884 ft | 486 kts | 337° |
| 2026-04-20 17:01 | 3.56255 | 44.60315 | 33880 ft | 486 kts | 337° |
| 2026-04-20 17:02 | 3.62439 | 44.57567 | 33878 ft | 487 kts | 337° |
| 2026-04-20 17:02 | 3.68639 | 44.54813 | 33881 ft | 487 kts | 337° |
| 2026-04-20 17:03 | 3.74835 | 44.52060 | 33880 ft | 487 kts | 337° |
| 2026-04-20 17:03 | 3.81029 | 44.49307 | 33879 ft | 487 kts | 337° |
| 2026-04-20 17:04 | 3.87187 | 44.46570 | 33884 ft | 487 kts | 337° |
| 2026-04-20 17:04 | 3.93389 | 44.43813 | 33887 ft | 486 kts | 337° |
| 2026-04-20 17:05 | 3.99584 | 44.41058 | 33875 ft | 486 kts | 337° |
| 2026-04-20 17:05 | 4.05779 | 44.38303 | 33883 ft | 486 kts | 337° |
| 2026-04-20 17:06 | 4.11920 | 44.35572 | 33879 ft | 486 kts | 337° |
| 2026-04-20 17:06 | 4.18094 | 44.32826 | 33889 ft | 486 kts | 337° |
| 2026-04-20 17:07 | 4.24281 | 44.30073 | 33890 ft | 486 kts | 337° |
| 2026-04-20 17:07 | 4.30475 | 44.27317 | 33887 ft | 486 kts | 337° |
| 2026-04-20 17:08 | 4.36665 | 44.24562 | 33887 ft | 486 kts | 337° |
| 2026-04-20 17:08 | 4.42855 | 44.21806 | 33889 ft | 487 kts | 337° |
| 2026-04-20 17:09 | 4.49030 | 44.19057 | 33888 ft | 487 kts | 337° |
| 2026-04-20 17:09 | 4.55197 | 44.16310 | 33890 ft | 487 kts | 337° |
| 2026-04-20 17:10 | 4.61397 | 44.13549 | 33889 ft | 487 kts | 337° |
| 2026-04-20 17:10 | 4.66552 | 44.11252 | 33889 ft | 487 kts | 337° |
| 2026-04-20 17:11 | 4.72756 | 44.08488 | 33888 ft | 487 kts | 337° |
| 2026-04-20 17:11 | 4.78961 | 44.05723 | 33880 ft | 487 kts | 337° |
| 2026-04-20 17:12 | 4.85159 | 44.02960 | 33875 ft | 487 kts | 337° |
| 2026-04-20 17:12 | 4.91361 | 44.00195 | 33870 ft | 487 kts | 337° |
| 2026-04-20 17:13 | 4.97550 | 43.97403 | 33867 ft | 487 kts | 336° |
| 2026-04-20 17:13 | 5.03711 | 43.94593 | 33865 ft | 487 kts | 336° |
| 2026-04-20 17:14 | 5.09844 | 43.91797 | 33864 ft | 487 kts | 336° |
| 2026-04-20 17:14 | 5.16018 | 43.88988 | 33858 ft | 487 kts | 336° |
| 2026-04-20 17:15 | 5.22194 | 43.86179 | 33855 ft | 487 kts | 336° |
| 2026-04-20 17:15 | 5.28362 | 43.83374 | 33861 ft | 487 kts | 336° |
| 2026-04-20 17:16 | 5.34541 | 43.80562 | 33859 ft | 487 kts | 336° |
| 2026-04-20 17:16 | 5.40728 | 43.77746 | 33861 ft | 487 kts | 336° |
| 2026-04-20 17:17 | 5.46893 | 43.74940 | 33858 ft | 487 kts | 336° |
| 2026-04-20 17:17 | 5.53035 | 43.72143 | 33856 ft | 486 kts | 336° |
| 2026-04-20 17:18 | 5.59195 | 43.69338 | 33853 ft | 486 kts | 336° |
| 2026-04-20 17:18 | 5.65361 | 43.66529 | 33848 ft | 486 kts | 336° |
| 2026-04-20 17:19 | 5.71512 | 43.63729 | 33853 ft | 486 kts | 336° |
| 2026-04-20 17:19 | 5.77670 | 43.60933 | 33851 ft | 485 kts | 336° |
| 2026-04-20 17:20 | 5.83821 | 43.58141 | 33845 ft | 485 kts | 336° |
| 2026-04-20 17:20 | 5.89969 | 43.55349 | 33842 ft | 485 kts | 336° |
| 2026-04-20 17:21 | 5.96117 | 43.52555 | 33847 ft | 485 kts | 336° |
| 2026-04-20 17:21 | 6.02233 | 43.49776 | 33846 ft | 485 kts | 336° |
| 2026-04-20 17:22 | 6.08372 | 43.46984 | 33847 ft | 485 kts | 336° |
| 2026-04-20 17:22 | 6.14533 | 43.44182 | 33846 ft | 485 kts | 336° |
| 2026-04-20 17:23 | 6.20677 | 43.41388 | 33847 ft | 485 kts | 336° |
| 2026-04-20 17:23 | 6.26835 | 43.38586 | 33850 ft | 485 kts | 336° |
| 2026-04-20 17:24 | 6.32987 | 43.35786 | 33848 ft | 485 kts | 336° |
| 2026-04-20 17:24 | 6.39142 | 43.32984 | 33853 ft | 485 kts | 336° |
| 2026-04-20 17:25 | 6.45292 | 43.30184 | 33854 ft | 485 kts | 336° |
| 2026-04-20 17:25 | 6.51383 | 43.27409 | 33857 ft | 484 kts | 336° |
| 2026-04-20 17:26 | 6.57525 | 43.24611 | 33865 ft | 484 kts | 336° |
| 2026-04-20 17:26 | 6.63661 | 43.21815 | 33867 ft | 484 kts | 336° |
| 2026-04-20 17:27 | 6.69807 | 43.19013 | 33870 ft | 484 kts | 336° |
| 2026-04-20 17:27 | 6.75962 | 43.16206 | 33873 ft | 484 kts | 336° |
| 2026-04-20 17:28 | 6.82072 | 43.13420 | 33879 ft | 485 kts | 336° |
| 2026-04-20 17:28 | 6.88223 | 43.10614 | 33878 ft | 485 kts | 336° |
| 2026-04-20 17:29 | 6.94371 | 43.07808 | 33885 ft | 485 kts | 336° |
| 2026-04-20 17:29 | 7.00521 | 43.05004 | 33887 ft | 486 kts | 336° |
| 2026-04-20 17:30 | 7.06682 | 43.02201 | 33889 ft | 486 kts | 336° |
| 2026-04-20 17:30 | 7.12854 | 42.99393 | 33897 ft | 486 kts | 336° |
| 2026-04-20 17:31 | 7.19040 | 42.96578 | 33897 ft | 487 kts | 336° |
| 2026-04-20 17:31 | 7.25214 | 42.93766 | 33900 ft | 487 kts | 336° |
| 2026-04-20 17:32 | 7.31391 | 42.90952 | 33905 ft | 487 kts | 336° |
| 2026-04-20 17:32 | 7.37511 | 42.88163 | 33901 ft | 487 kts | 336° |
| 2026-04-20 17:33 | 7.43709 | 42.85338 | 33902 ft | 487 kts | 336° |
| 2026-04-20 17:33 | 7.49889 | 42.82521 | 33903 ft | 487 kts | 336° |
| 2026-04-20 17:34 | 7.56077 | 42.79698 | 33900 ft | 487 kts | 336° |
| 2026-04-20 17:34 | 7.62256 | 42.76879 | 33898 ft | 487 kts | 336° |
| 2026-04-20 17:35 | 7.68442 | 42.74056 | 33902 ft | 488 kts | 336° |
| 2026-04-20 17:35 | 7.74589 | 42.71250 | 33903 ft | 488 kts | 336° |
| 2026-04-20 17:36 | 7.80781 | 42.68422 | 33907 ft | 488 kts | 336° |
| 2026-04-20 17:36 | 7.86970 | 42.65594 | 33906 ft | 488 kts | 336° |
| 2026-04-20 17:37 | 7.93167 | 42.62763 | 33912 ft | 488 kts | 336° |
| 2026-04-20 17:37 | 7.99365 | 42.59929 | 33916 ft | 488 kts | 336° |
| 2026-04-20 17:38 | 8.05518 | 42.57116 | 33923 ft | 489 kts | 336° |
| 2026-04-20 17:38 | 8.11714 | 42.54281 | 33926 ft | 489 kts | 336° |
| 2026-04-20 17:39 | 8.17921 | 42.51441 | 33928 ft | 489 kts | 336° |
| 2026-04-20 17:39 | 8.24124 | 42.48602 | 33929 ft | 490 kts | 336° |
| 2026-04-20 17:40 | 8.30339 | 42.45758 | 33936 ft | 490 kts | 336° |
| 2026-04-20 17:40 | 8.36526 | 42.42926 | 33936 ft | 490 kts | 336° |
| 2026-04-20 17:41 | 8.42748 | 42.40078 | 33943 ft | 490 kts | 336° |
| 2026-04-20 17:41 | 8.48972 | 42.37235 | 33941 ft | 490 kts | 336° |
| 2026-04-20 17:42 | 8.55188 | 42.34400 | 33944 ft | 490 kts | 336° |
| 2026-04-20 17:42 | 8.61370 | 42.31580 | 33952 ft | 491 kts | 336° |
| 2026-04-20 17:43 | 8.67592 | 42.28740 | 33955 ft | 491 kts | 336° |
| 2026-04-20 17:43 | 8.73828 | 42.25891 | 33959 ft | 491 kts | 336° |
| 2026-04-20 17:44 | 8.80054 | 42.23046 | 33964 ft | 491 kts | 336° |
| 2026-04-20 17:44 | 8.86287 | 42.20197 | 33967 ft | 492 kts | 336° |
| 2026-04-20 17:45 | 8.92532 | 42.17342 | 33973 ft | 491 kts | 336° |
| 2026-04-20 17:45 | 8.98763 | 42.14491 | 33976 ft | 492 kts | 336° |
| 2026-04-20 17:46 | 9.04996 | 42.11639 | 33987 ft | 492 kts | 336° |
| 2026-04-20 17:46 | 9.11230 | 42.08785 | 34000 ft | 491 kts | 336° |
| 2026-04-20 17:47 | 9.17456 | 42.05934 | 34001 ft | 491 kts | 336° |
| 2026-04-20 17:47 | 9.23690 | 42.03078 | 34006 ft | 491 kts | 336° |
| 2026-04-20 17:48 | 9.29879 | 42.00241 | 34005 ft | 491 kts | 336° |
| 2026-04-20 17:48 | 9.36099 | 41.97389 | 34000 ft | 491 kts | 336° |
| 2026-04-20 17:49 | 9.42319 | 41.94537 | 33990 ft | 491 kts | 336° |
| 2026-04-20 17:49 | 9.48556 | 41.91675 | 33979 ft | 491 kts | 336° |
| 2026-04-20 17:50 | 9.54779 | 41.88818 | 33962 ft | 491 kts | 336° |
| 2026-04-20 17:50 | 9.60966 | 41.85977 | 33941 ft | 491 kts | 336° |
| 2026-04-20 17:51 | 9.67174 | 41.83085 | 33914 ft | 491 kts | 334° |
| 2026-04-20 17:51 | 9.73304 | 41.79995 | 33902 ft | 492 kts | 333° |
| 2026-04-20 17:52 | 9.79414 | 41.76859 | 33882 ft | 492 kts | 333° |
| 2026-04-20 17:52 | 9.85546 | 41.73740 | 33869 ft | 492 kts | 334° |
| 2026-04-20 17:53 | 9.91637 | 41.70663 | 33856 ft | 492 kts | 334° |
| 2026-04-20 17:53 | 9.97782 | 41.67565 | 33849 ft | 492 kts | 334° |
| 2026-04-20 17:54 | 10.03910 | 41.64473 | 33840 ft | 492 kts | 334° |
| 2026-04-20 17:54 | 10.10036 | 41.61379 | 33833 ft | 491 kts | 334° |
| 2026-04-20 17:55 | 10.16158 | 41.58285 | 33837 ft | 491 kts | 333° |
| 2026-04-20 17:55 | 10.22232 | 41.55214 | 33838 ft | 490 kts | 333° |
| 2026-04-20 17:56 | 10.28369 | 41.52110 | 33837 ft | 490 kts | 333° |
| 2026-04-20 17:56 | 10.34445 | 41.49036 | 33832 ft | 489 kts | 333° |
| 2026-04-20 17:57 | 10.40532 | 41.45954 | 33830 ft | 489 kts | 333° |
| 2026-04-20 17:57 | 10.45599 | 41.43388 | 33828 ft | 489 kts | 333° |
| 2026-04-20 17:58 | 10.51685 | 41.40305 | 33827 ft | 488 kts | 333° |
| 2026-04-20 17:58 | 10.57770 | 41.37221 | 33827 ft | 488 kts | 333° |
| 2026-04-20 17:59 | 10.63842 | 41.34142 | 33822 ft | 488 kts | 333° |
| 2026-04-20 17:59 | 10.69930 | 41.31054 | 33818 ft | 487 kts | 333° |
| 2026-04-20 18:00 | 10.75950 | 41.27998 | 33813 ft | 487 kts | 333° |
| 2026-04-20 18:00 | 10.82023 | 41.24915 | 33815 ft | 487 kts | 333° |
| 2026-04-20 18:01 | 10.88088 | 41.21833 | 33817 ft | 488 kts | 332° |
| 2026-04-20 18:01 | 10.94171 | 41.18742 | 33817 ft | 488 kts | 332° |
| 2026-04-20 18:02 | 11.00257 | 41.15648 | 33807 ft | 489 kts | 332° |
| 2026-04-20 18:02 | 11.06340 | 41.12553 | 33805 ft | 489 kts | 332° |
| 2026-04-20 18:03 | 11.12439 | 41.09450 | 33813 ft | 489 kts | 332° |
| 2026-04-20 18:03 | 11.18483 | 41.06372 | 33807 ft | 489 kts | 332° |
| 2026-04-20 18:04 | 11.24566 | 41.03273 | 33801 ft | 489 kts | 332° |
| 2026-04-20 18:04 | 11.30649 | 41.00173 | 33805 ft | 488 kts | 332° |
| 2026-04-20 18:05 | 11.39750 | 40.95532 | 33796 ft | 487 kts | 332° |
| 2026-04-20 18:05 | 11.45824 | 40.92433 | 33798 ft | 487 kts | 332° |
| 2026-04-20 18:06 | 11.51885 | 40.89338 | 33800 ft | 488 kts | 332° |
| 2026-04-20 18:06 | 11.57963 | 40.86233 | 33799 ft | 488 kts | 332° |
| 2026-04-20 18:07 | 11.63999 | 40.83149 | 33798 ft | 488 kts | 332° |
| 2026-04-20 18:07 | 11.70076 | 40.80042 | 33800 ft | 488 kts | 332° |
| 2026-04-20 18:08 | 11.76144 | 40.76939 | 33801 ft | 488 kts | 332° |
| 2026-04-20 18:08 | 11.82215 | 40.73832 | 33799 ft | 487 kts | 332° |
| 2026-04-20 18:09 | 11.88234 | 40.70750 | 33804 ft | 486 kts | 332° |
| 2026-04-20 18:09 | 11.94273 | 40.67656 | 33797 ft | 485 kts | 332° |
| 2026-04-20 18:10 | 12.00299 | 40.64568 | 33798 ft | 484 kts | 332° |
| 2026-04-20 18:10 | 12.06321 | 40.61480 | 33804 ft | 483 kts | 332° |
| 2026-04-20 18:11 | 12.12318 | 40.58403 | 33801 ft | 483 kts | 332° |
| 2026-04-20 18:11 | 12.18320 | 40.55322 | 33804 ft | 482 kts | 332° |
| 2026-04-20 18:12 | 12.24316 | 40.52243 | 33795 ft | 482 kts | 332° |
| 2026-04-20 18:12 | 12.30298 | 40.49169 | 33795 ft | 482 kts | 332° |
| 2026-04-20 18:13 | 12.36272 | 40.46098 | 33792 ft | 482 kts | 332° |
| 2026-04-20 18:13 | 12.42277 | 40.43010 | 33786 ft | 482 kts | 332° |
| 2026-04-20 18:14 | 12.48065 | 40.39606 | 33784 ft | 480 kts | 323° |
| 2026-04-20 18:14 | 12.53487 | 40.35600 | 33790 ft | 479 kts | 322° |
| 2026-04-20 18:15 | 12.58878 | 40.31589 | 33788 ft | 479 kts | 322° |
| 2026-04-20 18:15 | 12.64290 | 40.27595 | 33793 ft | 479 kts | 323° |
| 2026-04-20 18:16 | 12.69702 | 40.23620 | 33797 ft | 478 kts | 323° |
| 2026-04-20 18:16 | 12.75106 | 40.19653 | 33810 ft | 478 kts | 323° |
| 2026-04-20 18:17 | 12.80487 | 40.15702 | 33818 ft | 478 kts | 322° |
| 2026-04-20 18:17 | 12.85891 | 40.11729 | 33829 ft | 477 kts | 322° |
| 2026-04-20 18:18 | 12.91288 | 40.07759 | 33838 ft | 477 kts | 322° |
| 2026-04-20 18:18 | 12.96686 | 40.03786 | 33848 ft | 477 kts | 322° |
| 2026-04-20 18:19 | 13.02048 | 39.99837 | 33857 ft | 478 kts | 322° |
| 2026-04-20 18:19 | 13.07449 | 39.95858 | 33872 ft | 477 kts | 322° |
| 2026-04-20 18:20 | 13.12848 | 39.91878 | 33893 ft | 478 kts | 322° |
| 2026-04-20 18:20 | 13.18245 | 39.87896 | 33900 ft | 478 kts | 322° |
| 2026-04-20 18:21 | 13.23646 | 39.83910 | 33916 ft | 478 kts | 322° |
| 2026-04-20 18:21 | 13.29053 | 39.79918 | 33928 ft | 478 kts | 322° |
| 2026-04-20 18:22 | 13.34413 | 39.75958 | 33936 ft | 478 kts | 322° |
| 2026-04-20 18:22 | 13.39816 | 39.71963 | 33952 ft | 478 kts | 322° |
| 2026-04-20 18:23 | 13.45217 | 39.67969 | 33965 ft | 478 kts | 322° |
| 2026-04-20 18:23 | 13.50619 | 39.63971 | 33983 ft | 479 kts | 322° |
| 2026-04-20 18:24 | 13.56025 | 39.59967 | 33991 ft | 479 kts | 322° |
| 2026-04-20 18:24 | 13.61447 | 39.55949 | 33998 ft | 479 kts | 322° |
| 2026-04-20 18:25 | 13.66828 | 39.51960 | 34006 ft | 479 kts | 322° |
| 2026-04-20 18:25 | 13.72225 | 39.47957 | 34008 ft | 479 kts | 322° |
| 2026-04-20 18:26 | 13.77649 | 39.43931 | 34005 ft | 480 kts | 322° |
| 2026-04-20 18:26 | 13.83063 | 39.39910 | 33999 ft | 480 kts | 322° |
| 2026-04-20 18:27 | 13.88484 | 39.35882 | 34000 ft | 480 kts | 322° |
| 2026-04-20 18:27 | 13.93915 | 39.31845 | 33996 ft | 481 kts | 322° |
| 2026-04-20 18:28 | 13.99310 | 39.27831 | 33995 ft | 482 kts | 322° |
| 2026-04-20 18:28 | 14.04789 | 39.23751 | 33991 ft | 483 kts | 322° |
| 2026-04-20 18:29 | 14.10202 | 39.19720 | 33985 ft | 483 kts | 322° |
| 2026-04-20 18:29 | 14.15640 | 39.15667 | 33981 ft | 482 kts | 322° |
| 2026-04-20 18:30 | 14.21081 | 39.11610 | 33966 ft | 482 kts | 321° |
| 2026-04-20 18:30 | 14.26508 | 39.07559 | 33962 ft | 482 kts | 321° |
| 2026-04-20 18:31 | 14.31941 | 39.03503 | 33949 ft | 481 kts | 321° |
| 2026-04-20 18:31 | 14.37359 | 38.99455 | 33942 ft | 481 kts | 321° |
| 2026-04-20 18:32 | 14.42784 | 38.95399 | 33941 ft | 481 kts | 321° |
| 2026-04-20 18:32 | 14.48413 | 38.91666 | 33925 ft | 484 kts | 334° |
| 2026-04-20 18:33 | 14.54969 | 38.89896 | 33921 ft | 493 kts | 352° |
| 2026-04-20 18:33 | 14.61866 | 38.89852 | 33917 ft | 496 kts | 358° |
| 2026-04-20 18:34 | 14.68744 | 38.89973 | 33921 ft | 497 kts | 357° |
| 2026-04-20 18:34 | 14.75671 | 38.90033 | 33926 ft | 497 kts | 356° |
| 2026-04-20 18:35 | 14.82596 | 38.90045 | 33937 ft | 497 kts | 356° |
| 2026-04-20 18:35 | 14.89515 | 38.90048 | 33942 ft | 497 kts | 356° |
| 2026-04-20 18:36 | 14.96429 | 38.90054 | 33942 ft | 497 kts | 356° |
| 2026-04-20 18:36 | 15.03311 | 38.90063 | 33946 ft | 497 kts | 356° |
| 2026-04-20 18:37 | 15.10229 | 38.90073 | 33947 ft | 497 kts | 356° |
| 2026-04-20 18:37 | 15.17145 | 38.90083 | 33944 ft | 497 kts | 356° |
| 2026-04-20 18:38 | 15.24076 | 38.90093 | 33950 ft | 497 kts | 356° |
| 2026-04-20 18:38 | 15.30990 | 38.90130 | 33938 ft | 497 kts | 358° |
| 2026-04-20 18:39 | 15.37915 | 38.90365 | 33934 ft | 497 kts | 359° |
| 2026-04-20 18:39 | 15.44797 | 38.90655 | 33923 ft | 497 kts | 359° |
| 2026-04-20 18:40 | 15.51705 | 38.90924 | 33909 ft | 497 kts | 359° |
| 2026-04-20 18:40 | 15.58617 | 38.91173 | 33897 ft | 497 kts | 358° |
| 2026-04-20 18:41 | 15.65540 | 38.91419 | 33888 ft | 496 kts | 358° |
| 2026-04-20 18:41 | 15.72435 | 38.91665 | 33884 ft | 495 kts | 358° |
| 2026-04-20 18:42 | 15.79323 | 38.91910 | 33874 ft | 496 kts | 358° |
| 2026-04-20 18:42 | 15.86229 | 38.92155 | 33864 ft | 497 kts | 358° |
| 2026-04-20 18:43 | 15.93117 | 38.92401 | 33857 ft | 498 kts | 358° |
| 2026-04-20 18:43 | 16.00048 | 38.92650 | 33851 ft | 499 kts | 358° |
| 2026-04-20 18:44 | 16.06987 | 38.92899 | 33828 ft | 499 kts | 358° |
| 2026-04-20 18:44 | 16.13929 | 38.93148 | 33841 ft | 498 kts | 358° |
| 2026-04-20 18:45 | 16.20854 | 38.93396 | 33828 ft | 497 kts | 358° |
| 2026-04-20 18:45 | 16.27770 | 38.93645 | 33822 ft | 497 kts | 358° |
| 2026-04-20 18:46 | 16.34682 | 38.93893 | 33824 ft | 496 kts | 358° |
| 2026-04-20 18:46 | 16.41577 | 38.94140 | 33816 ft | 496 kts | 358° |
| 2026-04-20 18:47 | 16.47320 | 38.94346 | 33815 ft | 496 kts | 358° |
| 2026-04-20 18:47 | 16.54231 | 38.94595 | 33816 ft | 497 kts | 358° |
| 2026-04-20 18:48 | 16.61137 | 38.94844 | 33811 ft | 497 kts | 358° |
| 2026-04-20 18:48 | 16.68055 | 38.95093 | 33810 ft | 497 kts | 358° |
| 2026-04-20 18:49 | 16.74977 | 38.95343 | 33808 ft | 497 kts | 358° |
| 2026-04-20 18:49 | 16.81899 | 38.95593 | 33812 ft | 497 kts | 357° |
| 2026-04-20 18:50 | 16.88782 | 38.95842 | 33807 ft | 497 kts | 357° |
| 2026-04-20 18:50 | 16.95699 | 38.96092 | 33807 ft | 497 kts | 357° |
| 2026-04-20 18:51 | 17.02620 | 38.96342 | 33804 ft | 497 kts | 357° |
| 2026-04-20 18:51 | 17.09537 | 38.96593 | 33801 ft | 497 kts | 357° |
| 2026-04-20 18:52 | 17.16461 | 38.96844 | 33806 ft | 497 kts | 357° |
| 2026-04-20 18:52 | 17.23377 | 38.97095 | 33801 ft | 497 kts | 357° |
| 2026-04-20 18:53 | 17.30303 | 38.97347 | 33802 ft | 497 kts | 357° |
| 2026-04-20 18:53 | 17.37176 | 38.97597 | 33803 ft | 498 kts | 357° |
| 2026-04-20 18:54 | 17.44101 | 38.97849 | 33802 ft | 498 kts | 357° |
| 2026-04-20 18:54 | 17.51026 | 38.98098 | 33805 ft | 499 kts | 357° |
| 2026-04-20 18:55 | 17.57971 | 38.98349 | 33806 ft | 499 kts | 356° |
| 2026-04-20 18:55 | 17.64921 | 38.98602 | 33802 ft | 499 kts | 356° |
| 2026-04-20 18:56 | 17.71874 | 38.98855 | 33805 ft | 500 kts | 356° |
| 2026-04-20 18:56 | 17.78824 | 38.99109 | 33803 ft | 500 kts | 356° |
| 2026-04-20 18:57 | 17.85780 | 38.99363 | 33805 ft | 500 kts | 356° |
| 2026-04-20 18:57 | 17.92688 | 38.99615 | 33802 ft | 499 kts | 356° |
| 2026-04-20 18:58 | 17.99633 | 38.99869 | 33805 ft | 499 kts | 356° |
| 2026-04-20 18:58 | 18.06560 | 39.00123 | 33803 ft | 498 kts | 356° |
| 2026-04-20 18:59 | 18.13498 | 39.00378 | 33807 ft | 497 kts | 356° |
| 2026-04-20 18:59 | 18.20405 | 39.00658 | 33804 ft | 497 kts | 356° |
| 2026-04-20 19:00 | 18.27299 | 39.01044 | 33810 ft | 497 kts | 357° |
| 2026-04-20 19:00 | 18.34172 | 39.01445 | 33814 ft | 496 kts | 357° |
| 2026-04-20 19:01 | 18.41058 | 39.01833 | 33809 ft | 495 kts | 356° |
| 2026-04-20 19:01 | 18.47954 | 39.02214 | 33807 ft | 495 kts | 356° |
| 2026-04-20 19:02 | 18.54829 | 39.02592 | 33807 ft | 495 kts | 356° |
| 2026-04-20 19:02 | 18.61716 | 39.02973 | 33810 ft | 495 kts | 356° |
| 2026-04-20 19:03 | 18.68581 | 39.03353 | 33803 ft | 494 kts | 356° |
| 2026-04-20 19:03 | 18.75410 | 39.03731 | 33815 ft | 494 kts | 356° |
| 2026-04-20 19:04 | 18.82292 | 39.04113 | 33814 ft | 494 kts | 356° |
| 2026-04-20 19:04 | 18.89177 | 39.04495 | 33815 ft | 494 kts | 356° |
| 2026-04-20 19:05 | 18.96054 | 39.04877 | 33801 ft | 495 kts | 356° |
| 2026-04-20 19:05 | 19.02926 | 39.05260 | 33798 ft | 495 kts | 356° |
| 2026-04-20 19:06 | 19.09766 | 39.05550 | 33803 ft | 491 kts | 351° |
| 2026-04-20 19:06 | 19.16479 | 39.04746 | 33811 ft | 480 kts | 341° |
| 2026-04-20 19:07 | 19.22902 | 39.02956 | 33806 ft | 477 kts | 338° |
| 2026-04-20 19:07 | 19.29298 | 39.01076 | 33828 ft | 477 kts | 338° |
| 2026-04-20 19:08 | 19.38917 | 38.98299 | 33810 ft | 478 kts | 338° |
| 2026-04-20 19:09 | 19.45347 | 38.96464 | 33818 ft | 478 kts | 338° |
| 2026-04-20 19:09 | 19.51779 | 38.94630 | 33814 ft | 478 kts | 338° |
| 2026-04-20 19:10 | 19.58162 | 38.92807 | 33816 ft | 478 kts | 338° |
| 2026-04-20 19:10 | 19.64587 | 38.90969 | 33816 ft | 478 kts | 338° |
| 2026-04-20 19:11 | 19.70999 | 38.89133 | 33818 ft | 477 kts | 338° |
| 2026-04-20 19:11 | 19.77404 | 38.87297 | 33816 ft | 477 kts | 338° |
| 2026-04-20 19:12 | 19.83825 | 38.85456 | 33817 ft | 477 kts | 338° |
| 2026-04-20 19:12 | 19.90229 | 38.83618 | 33818 ft | 476 kts | 338° |
| 2026-04-20 19:13 | 19.96635 | 38.81777 | 33821 ft | 476 kts | 338° |
| 2026-04-20 19:13 | 20.03033 | 38.79938 | 33819 ft | 476 kts | 338° |
| 2026-04-20 19:14 | 20.09391 | 38.78108 | 33821 ft | 476 kts | 337° |
| 2026-04-20 19:14 | 20.15853 | 38.76447 | 33822 ft | 482 kts | 343° |
| 2026-04-20 19:15 | 20.22630 | 38.75964 | 33828 ft | 492 kts | 351° |
| 2026-04-20 19:15 | 20.29479 | 38.75894 | 33824 ft | 492 kts | 352° |
| 2026-04-20 19:16 | 20.36339 | 38.75810 | 33822 ft | 492 kts | 351° |
| 2026-04-20 19:16 | 20.43149 | 38.75696 | 33824 ft | 492 kts | 351° |
| 2026-04-20 19:17 | 20.50008 | 38.75566 | 33827 ft | 493 kts | 351° |
| 2026-04-20 19:17 | 20.56855 | 38.75435 | 33824 ft | 493 kts | 351° |
| 2026-04-20 19:18 | 20.63713 | 38.75306 | 33828 ft | 493 kts | 351° |
| 2026-04-20 19:18 | 20.70576 | 38.75177 | 33825 ft | 492 kts | 351° |
| 2026-04-20 19:19 | 20.77409 | 38.75049 | 33828 ft | 492 kts | 351° |
| 2026-04-20 19:19 | 20.84285 | 38.74920 | 33826 ft | 492 kts | 351° |
| 2026-04-20 19:20 | 20.91134 | 38.74791 | 33826 ft | 492 kts | 351° |
| 2026-04-20 19:20 | 20.97932 | 38.74663 | 33829 ft | 492 kts | 351° |
| 2026-04-20 19:21 | 21.04797 | 38.74533 | 33829 ft | 492 kts | 351° |
| 2026-04-20 19:21 | 21.11658 | 38.74404 | 33831 ft | 492 kts | 351° |
| 2026-04-20 19:22 | 21.18509 | 38.74274 | 33832 ft | 493 kts | 351° |
| 2026-04-20 19:22 | 21.25368 | 38.74144 | 33836 ft | 493 kts | 351° |
| 2026-04-20 19:23 | 21.32235 | 38.74015 | 33838 ft | 493 kts | 351° |
| 2026-04-20 19:23 | 21.39049 | 38.73885 | 33839 ft | 493 kts | 351° |
| 2026-04-20 19:24 | 21.45927 | 38.73755 | 33841 ft | 494 kts | 351° |
| 2026-04-20 19:24 | 21.52801 | 38.73624 | 33840 ft | 494 kts | 351° |
| 2026-04-20 19:25 | 21.59685 | 38.73494 | 33839 ft | 494 kts | 351° |
| 2026-04-20 19:25 | 21.66564 | 38.73363 | 33842 ft | 494 kts | 351° |
| 2026-04-20 19:26 | 21.73451 | 38.73232 | 33835 ft | 495 kts | 350° |
| 2026-04-20 19:26 | 21.80336 | 38.73101 | 33842 ft | 495 kts | 350° |
| 2026-04-20 19:27 | 21.87230 | 38.72970 | 33844 ft | 495 kts | 350° |
| 2026-04-20 19:27 | 21.94120 | 38.72838 | 33839 ft | 495 kts | 350° |
| 2026-04-20 19:28 | 22.00980 | 38.72707 | 33845 ft | 496 kts | 350° |
| 2026-04-20 19:28 | 22.07882 | 38.72575 | 33848 ft | 496 kts | 350° |
| 2026-04-20 19:29 | 22.14772 | 38.72444 | 33851 ft | 496 kts | 350° |
| 2026-04-20 19:29 | 22.21683 | 38.72312 | 33849 ft | 496 kts | 350° |
| 2026-04-20 19:30 | 22.28584 | 38.72180 | 33850 ft | 496 kts | 350° |
| 2026-04-20 19:30 | 22.35485 | 38.72048 | 33850 ft | 496 kts | 349° |
| 2026-04-20 19:31 | 22.42340 | 38.71916 | 33845 ft | 495 kts | 349° |
| 2026-04-20 19:31 | 22.49234 | 38.71784 | 33852 ft | 495 kts | 349° |
| 2026-04-20 19:32 | 22.56124 | 38.71652 | 33851 ft | 495 kts | 349° |
| 2026-04-20 19:32 | 22.62930 | 38.71124 | 33851 ft | 482 kts | 340° |
| 2026-04-20 19:33 | 22.69322 | 38.69279 | 33854 ft | 466 kts | 329° |
| 2026-04-20 19:33 | 22.74292 | 38.67074 | 33855 ft | 464 kts | 328° |
| 2026-04-20 19:34 | 22.81224 | 38.63926 | 33850 ft | 464 kts | 327° |
| 2026-04-20 19:34 | 22.86181 | 38.61698 | 33851 ft | 464 kts | 328° |
| 2026-04-20 19:35 | 22.92155 | 38.59034 | 33851 ft | 464 kts | 328° |
| 2026-04-20 19:35 | 22.98134 | 38.56373 | 33851 ft | 464 kts | 327° |
| 2026-04-20 19:36 | 23.04106 | 38.53713 | 33851 ft | 463 kts | 327° |
| 2026-04-20 19:36 | 23.10066 | 38.51054 | 33850 ft | 463 kts | 327° |
| 2026-04-20 19:37 | 23.16031 | 38.48390 | 33849 ft | 462 kts | 327° |
| 2026-04-20 19:37 | 23.21972 | 38.45734 | 33848 ft | 462 kts | 327° |
| 2026-04-20 19:38 | 23.27911 | 38.43076 | 33855 ft | 461 kts | 327° |
| 2026-04-20 19:38 | 23.33854 | 38.40414 | 33842 ft | 460 kts | 327° |
| 2026-04-20 19:39 | 23.39739 | 38.37775 | 33849 ft | 460 kts | 327° |
| 2026-04-20 19:39 | 23.45661 | 38.35117 | 33844 ft | 460 kts | 327° |
| 2026-04-20 19:40 | 23.51571 | 38.32462 | 33848 ft | 459 kts | 327° |
| 2026-04-20 19:40 | 23.57482 | 38.29804 | 33846 ft | 459 kts | 326° |
| 2026-04-20 19:41 | 23.63387 | 38.27146 | 33848 ft | 458 kts | 326° |
| 2026-04-20 19:41 | 23.69272 | 38.24500 | 33850 ft | 458 kts | 326° |
| 2026-04-20 19:42 | 23.75146 | 38.21864 | 33840 ft | 458 kts | 326° |
| 2026-04-20 19:42 | 23.81041 | 38.19215 | 33840 ft | 458 kts | 326° |
| 2026-04-20 19:43 | 23.85968 | 38.16999 | 33828 ft | 458 kts | 326° |
| 2026-04-20 19:43 | 23.92818 | 38.13914 | 33809 ft | 457 kts | 326° |
| 2026-04-20 19:44 | 23.98705 | 38.11259 | 33793 ft | 457 kts | 326° |
| 2026-04-20 19:44 | 24.04596 | 38.08601 | 33779 ft | 457 kts | 326° |
| 2026-04-20 19:45 | 24.10467 | 38.05949 | 33777 ft | 457 kts | 326° |
| 2026-04-20 19:45 | 24.16121 | 38.03022 | 33780 ft | 445 kts | 319° |
| 2026-04-20 19:46 | 24.21196 | 37.99313 | 33781 ft | 438 kts | 315° |
| 2026-04-20 19:46 | 24.26211 | 37.95510 | 33774 ft | 439 kts | 315° |
| 2026-04-20 19:47 | 24.31243 | 37.91714 | 33781 ft | 439 kts | 315° |
| 2026-04-20 19:47 | 24.36289 | 37.87918 | 33784 ft | 440 kts | 315° |
| 2026-04-20 19:48 | 24.41334 | 37.84121 | 33802 ft | 440 kts | 315° |
| 2026-04-20 19:48 | 24.46359 | 37.80338 | 33810 ft | 440 kts | 315° |
| 2026-04-20 19:49 | 24.51399 | 37.76539 | 33813 ft | 440 kts | 315° |
| 2026-04-20 19:49 | 24.56436 | 37.72737 | 33830 ft | 439 kts | 315° |
| 2026-04-20 19:50 | 24.61464 | 37.68939 | 33836 ft | 439 kts | 315° |
| 2026-04-20 19:50 | 24.66492 | 37.65137 | 33842 ft | 438 kts | 315° |
| 2026-04-20 19:51 | 24.71521 | 37.61330 | 33857 ft | 438 kts | 315° |
| 2026-04-20 19:51 | 24.76543 | 37.57523 | 33867 ft | 438 kts | 315° |
| 2026-04-20 19:52 | 24.81525 | 37.53746 | 33873 ft | 437 kts | 315° |
| 2026-04-20 19:52 | 24.86534 | 37.49942 | 33866 ft | 437 kts | 315° |
| 2026-04-20 19:53 | 24.91536 | 37.46140 | 33892 ft | 436 kts | 315° |
| 2026-04-20 19:53 | 24.96535 | 37.42336 | 33886 ft | 436 kts | 315° |
| 2026-04-20 19:54 | 25.01525 | 37.38537 | 33884 ft | 435 kts | 315° |
| 2026-04-20 19:54 | 25.06511 | 37.34736 | 33893 ft | 435 kts | 315° |
| 2026-04-20 19:55 | 25.11491 | 37.30936 | 33899 ft | 435 kts | 315° |
| 2026-04-20 19:55 | 25.16439 | 37.27156 | 33893 ft | 435 kts | 315° |
| 2026-04-20 19:56 | 25.21414 | 37.23352 | 33894 ft | 435 kts | 315° |
| 2026-04-20 19:56 | 25.26393 | 37.19542 | 33902 ft | 435 kts | 315° |
| 2026-04-20 19:57 | 25.31366 | 37.15728 | 33899 ft | 435 kts | 315° |
| 2026-04-20 19:57 | 25.36343 | 37.11904 | 33893 ft | 435 kts | 315° |
| 2026-04-20 19:58 | 25.41323 | 37.08077 | 33893 ft | 436 kts | 315° |
| 2026-04-20 19:58 | 25.46306 | 37.04259 | 33890 ft | 436 kts | 315° |
| 2026-04-20 19:59 | 25.51302 | 37.00430 | 33889 ft | 437 kts | 315° |
| 2026-04-20 19:59 | 25.56278 | 36.96611 | 33884 ft | 437 kts | 315° |
| 2026-04-20 20:00 | 25.61294 | 36.92756 | 33884 ft | 437 kts | 315° |
| 2026-04-20 20:00 | 25.66261 | 36.88935 | 33890 ft | 437 kts | 315° |
| 2026-04-20 20:01 | 25.71253 | 36.85090 | 33894 ft | 437 kts | 315° |
| 2026-04-20 20:01 | 25.76257 | 36.81220 | 33879 ft | 438 kts | 315° |
| 2026-04-20 20:02 | 25.81255 | 36.77341 | 33880 ft | 438 kts | 314° |
| 2026-04-20 20:02 | 25.86226 | 36.73480 | 33883 ft | 439 kts | 314° |
| 2026-04-20 20:03 | 25.91228 | 36.69593 | 33890 ft | 440 kts | 314° |
| 2026-04-20 20:03 | 25.96249 | 36.65687 | 33879 ft | 440 kts | 314° |
| 2026-04-20 20:04 | 26.01266 | 36.61781 | 33882 ft | 440 kts | 314° |
| 2026-04-20 20:04 | 26.06293 | 36.57863 | 33894 ft | 441 kts | 314° |
| 2026-04-20 20:05 | 26.11321 | 36.53940 | 33889 ft | 441 kts | 314° |
| 2026-04-20 20:05 | 26.16334 | 36.49992 | 33888 ft | 438 kts | 312° |
| 2026-04-20 20:06 | 26.20807 | 36.45538 | 33890 ft | 426 kts | 304° |
| 2026-04-20 20:06 | 26.24918 | 36.40755 | 33892 ft | 427 kts | 305° |
| 2026-04-20 20:07 | 26.29037 | 36.35990 | 33889 ft | 427 kts | 305° |
| 2026-04-20 20:07 | 26.33138 | 36.31260 | 33888 ft | 427 kts | 305° |
| 2026-04-20 20:08 | 26.37278 | 36.26484 | 33882 ft | 428 kts | 305° |
| 2026-04-20 20:08 | 26.41408 | 36.21713 | 33883 ft | 428 kts | 305° |
| 2026-04-20 20:09 | 26.45528 | 36.16949 | 33876 ft | 428 kts | 305° |
| 2026-04-20 20:09 | 26.49660 | 36.12167 | 33859 ft | 428 kts | 305° |
| 2026-04-20 20:10 | 26.53795 | 36.07375 | 33866 ft | 428 kts | 305° |
| 2026-04-20 20:10 | 26.57921 | 36.02588 | 33874 ft | 428 kts | 305° |
| 2026-04-20 20:11 | 26.62053 | 35.97789 | 33872 ft | 428 kts | 304° |
| 2026-04-20 20:11 | 26.66179 | 35.92992 | 33875 ft | 428 kts | 304° |
| 2026-04-20 20:12 | 26.70303 | 35.88191 | 33875 ft | 428 kts | 304° |
| 2026-04-20 20:12 | 26.74437 | 35.83374 | 33872 ft | 428 kts | 304° |
| 2026-04-20 20:13 | 26.80600 | 35.76182 | 33877 ft | 428 kts | 304° |
| 2026-04-20 20:13 | 26.84723 | 35.71363 | 33880 ft | 428 kts | 304° |
| 2026-04-20 20:14 | 26.88842 | 35.66546 | 33877 ft | 428 kts | 305° |
| 2026-04-20 20:14 | 26.92936 | 35.61751 | 33879 ft | 427 kts | 305° |
| 2026-04-20 20:15 | 26.97066 | 35.56908 | 33878 ft | 427 kts | 305° |
| 2026-04-20 20:15 | 27.01145 | 35.52120 | 33878 ft | 427 kts | 305° |
| 2026-04-20 20:16 | 27.05240 | 35.47307 | 33879 ft | 426 kts | 305° |
| 2026-04-20 20:16 | 27.09329 | 35.42496 | 33885 ft | 426 kts | 305° |
| 2026-04-20 20:17 | 27.13415 | 35.37684 | 33876 ft | 425 kts | 305° |
| 2026-04-20 20:17 | 27.17504 | 35.32862 | 33879 ft | 425 kts | 305° |
| 2026-04-20 20:18 | 27.21578 | 35.28052 | 33884 ft | 425 kts | 305° |
| 2026-04-20 20:18 | 27.25628 | 35.23266 | 33883 ft | 425 kts | 305° |
| 2026-04-20 20:19 | 27.29701 | 35.18447 | 33883 ft | 425 kts | 305° |
| 2026-04-20 20:19 | 27.33778 | 35.13617 | 33889 ft | 425 kts | 305° |
| 2026-04-20 20:20 | 27.37855 | 35.08782 | 33892 ft | 425 kts | 305° |
| 2026-04-20 20:20 | 27.41907 | 35.03973 | 33890 ft | 426 kts | 305° |
| 2026-04-20 20:21 | 27.45980 | 34.99131 | 33899 ft | 426 kts | 305° |
| 2026-04-20 20:21 | 27.50049 | 34.94291 | 33897 ft | 426 kts | 305° |
| 2026-04-20 20:22 | 27.54291 | 34.89581 | 33897 ft | 429 kts | 308° |
| 2026-04-20 20:22 | 27.58662 | 34.84989 | 33894 ft | 429 kts | 308° |
| 2026-04-20 20:23 | 27.62291 | 34.81175 | 33895 ft | 429 kts | 308° |
| 2026-04-20 20:23 | 27.66643 | 34.76577 | 33891 ft | 429 kts | 308° |
| 2026-04-20 20:24 | 27.70989 | 34.71971 | 33890 ft | 428 kts | 308° |
| 2026-04-20 20:24 | 27.75335 | 34.67358 | 33887 ft | 428 kts | 308° |
| 2026-04-20 20:25 | 27.79673 | 34.62748 | 33886 ft | 428 kts | 308° |
| 2026-04-20 20:25 | 27.84006 | 34.58139 | 33887 ft | 427 kts | 308° |
| 2026-04-20 20:26 | 27.88331 | 34.53533 | 33885 ft | 427 kts | 308° |
| 2026-04-20 20:26 | 27.92630 | 34.48950 | 33886 ft | 427 kts | 308° |
| 2026-04-20 20:27 | 27.96949 | 34.44341 | 33887 ft | 427 kts | 308° |
| 2026-04-20 20:27 | 28.01094 | 34.39589 | 33891 ft | 420 kts | 302° |
| 2026-04-20 20:28 | 28.04770 | 34.34470 | 33896 ft | 419 kts | 302° |
| 2026-04-20 20:28 | 28.08449 | 34.29354 | 33898 ft | 419 kts | 302° |
| 2026-04-20 20:29 | 28.12149 | 34.24222 | 33902 ft | 420 kts | 302° |
| 2026-04-20 20:29 | 28.15833 | 34.19113 | 33921 ft | 421 kts | 302° |
| 2026-04-20 20:30 | 28.19532 | 34.13977 | 33937 ft | 421 kts | 302° |
| 2026-04-20 20:30 | 28.23247 | 34.08821 | 33949 ft | 422 kts | 302° |
| 2026-04-20 20:31 | 28.26948 | 34.03667 | 33939 ft | 421 kts | 302° |
| 2026-04-20 20:31 | 28.30645 | 33.98522 | 33978 ft | 420 kts | 302° |
| 2026-04-20 20:32 | 28.34336 | 33.93374 | 33978 ft | 420 kts | 302° |
| 2026-04-20 20:32 | 28.38006 | 33.88245 | 33940 ft | 421 kts | 302° |
| 2026-04-20 20:33 | 28.41702 | 33.83078 | 33955 ft | 421 kts | 302° |
| 2026-04-20 20:33 | 28.45394 | 33.77910 | 33964 ft | 421 kts | 302° |
| 2026-04-20 20:34 | 28.49084 | 33.72737 | 33964 ft | 421 kts | 302° |
| 2026-04-20 20:34 | 28.52772 | 33.67566 | 33979 ft | 420 kts | 302° |
| 2026-04-20 20:35 | 28.56409 | 33.62451 | 33995 ft | 418 kts | 301° |
| 2026-04-20 20:35 | 28.60068 | 33.57288 | 33992 ft | 419 kts | 301° |
| 2026-04-20 20:36 | 28.63732 | 33.52129 | 33990 ft | 420 kts | 302° |
| 2026-04-20 20:36 | 28.67412 | 33.46944 | 33987 ft | 420 kts | 301° |
| 2026-04-20 20:37 | 28.71088 | 33.41758 | 33995 ft | 420 kts | 302° |
| 2026-04-20 20:37 | 28.74759 | 33.36572 | 33977 ft | 420 kts | 301° |
| 2026-04-20 20:38 | 28.78402 | 33.31419 | 33990 ft | 420 kts | 301° |
| 2026-04-20 20:38 | 28.82074 | 33.26221 | 33997 ft | 421 kts | 301° |
| 2026-04-20 20:39 | 28.85740 | 33.21022 | 33991 ft | 421 kts | 301° |
| 2026-04-20 20:39 | 28.89410 | 33.15812 | 33991 ft | 421 kts | 301° |
| 2026-04-20 20:40 | 28.93078 | 33.10599 | 34001 ft | 421 kts | 301° |
| 2026-04-20 20:40 | 28.96738 | 33.05390 | 34003 ft | 421 kts | 301° |
| 2026-04-20 20:41 | 29.00401 | 33.00171 | 34004 ft | 421 kts | 301° |
| 2026-04-20 20:41 | 29.04057 | 32.94955 | 34010 ft | 421 kts | 301° |
| 2026-04-20 20:42 | 29.07713 | 32.89732 | 34005 ft | 421 kts | 301° |
| 2026-04-20 20:42 | 29.11376 | 32.84492 | 34006 ft | 421 kts | 302° |
| 2026-04-20 20:43 | 29.15009 | 32.79289 | 34008 ft | 422 kts | 302° |
| 2026-04-20 20:43 | 29.18684 | 32.74020 | 34009 ft | 423 kts | 302° |
| 2026-04-20 20:44 | 29.22353 | 32.68751 | 34014 ft | 423 kts | 302° |
| 2026-04-20 20:44 | 29.26034 | 32.63462 | 34016 ft | 424 kts | 302° |
| 2026-04-20 20:45 | 29.29706 | 32.58167 | 34014 ft | 425 kts | 302° |
| 2026-04-20 20:45 | 29.33356 | 32.52849 | 34024 ft | 425 kts | 302° |
| 2026-04-20 20:46 | 29.36985 | 32.47548 | 34036 ft | 425 kts | 302° |
| 2026-04-20 20:46 | 29.40639 | 32.42206 | 34029 ft | 426 kts | 302° |
| 2026-04-20 20:47 | 29.44301 | 32.36852 | 34032 ft | 426 kts | 302° |
| 2026-04-20 20:47 | 29.47969 | 32.31482 | 34036 ft | 426 kts | 302° |
| 2026-04-20 20:48 | 29.51626 | 32.26120 | 34028 ft | 427 kts | 302° |
| 2026-04-20 20:48 | 29.55258 | 32.20789 | 34047 ft | 427 kts | 302° |
| 2026-04-20 20:49 | 29.58915 | 32.15414 | 34044 ft | 427 kts | 302° |
| 2026-04-20 20:49 | 29.62569 | 32.10036 | 34044 ft | 427 kts | 302° |
| 2026-04-20 20:50 | 29.66219 | 32.04655 | 34042 ft | 427 kts | 302° |
| 2026-04-20 20:50 | 29.69866 | 31.99273 | 34045 ft | 427 kts | 302° |
| 2026-04-20 20:51 | 29.73514 | 31.93882 | 34042 ft | 427 kts | 302° |
| 2026-04-20 20:51 | 29.77168 | 31.88477 | 34046 ft | 427 kts | 302° |
| 2026-04-20 20:52 | 29.80750 | 31.83063 | 34047 ft | 426 kts | 301° |
| 2026-04-20 20:52 | 29.84264 | 31.77569 | 34048 ft | 426 kts | 301° |
| 2026-04-20 20:53 | 29.87787 | 31.72075 | 34045 ft | 426 kts | 301° |
| 2026-04-20 20:53 | 29.91308 | 31.66599 | 34052 ft | 426 kts | 301° |
| 2026-04-20 20:54 | 29.94843 | 31.61114 | 34060 ft | 426 kts | 302° |
| 2026-04-20 20:54 | 29.98382 | 31.55627 | 34062 ft | 426 kts | 302° |
| 2026-04-20 20:55 | 30.01915 | 31.50141 | 34048 ft | 426 kts | 302° |
| 2026-04-20 20:55 | 30.05427 | 31.44679 | 34050 ft | 426 kts | 302° |
| 2026-04-20 20:56 | 30.09047 | 31.39240 | 34051 ft | 428 kts | 306° |
| 2026-04-20 20:56 | 30.13295 | 31.34344 | 34052 ft | 433 kts | 311° |
| 2026-04-20 20:57 | 30.17724 | 31.29637 | 34051 ft | 432 kts | 311° |
| 2026-04-20 20:57 | 30.22113 | 31.24949 | 34052 ft | 431 kts | 311° |
| 2026-04-20 20:58 | 30.26503 | 31.20237 | 34049 ft | 430 kts | 311° |
| 2026-04-20 20:58 | 30.30914 | 31.15489 | 34050 ft | 430 kts | 311° |
| 2026-04-20 20:59 | 30.35254 | 31.10812 | 34053 ft | 429 kts | 311° |
| 2026-04-20 20:59 | 30.39622 | 31.06099 | 34051 ft | 429 kts | 311° |
| 2026-04-20 21:00 | 30.43998 | 31.01371 | 34049 ft | 429 kts | 311° |
| 2026-04-20 21:00 | 30.48364 | 30.96648 | 34053 ft | 429 kts | 311° |
| 2026-04-20 21:01 | 30.52726 | 30.91924 | 34047 ft | 429 kts | 311° |
| 2026-04-20 21:01 | 30.57088 | 30.87193 | 34053 ft | 429 kts | 311° |
| 2026-04-20 21:02 | 30.61416 | 30.82494 | 34058 ft | 429 kts | 311° |
| 2026-04-20 21:02 | 30.65777 | 30.77752 | 34061 ft | 429 kts | 311° |
| 2026-04-20 21:03 | 30.70138 | 30.73004 | 34060 ft | 429 kts | 311° |
| 2026-04-20 21:03 | 30.74464 | 30.68289 | 34060 ft | 429 kts | 311° |
| 2026-04-20 21:04 | 30.78838 | 30.63514 | 34061 ft | 429 kts | 311° |
| 2026-04-20 21:04 | 30.83165 | 30.58785 | 34051 ft | 429 kts | 311° |
| 2026-04-20 21:05 | 30.87522 | 30.54017 | 34049 ft | 429 kts | 311° |
| 2026-04-20 21:05 | 30.91875 | 30.49247 | 34049 ft | 430 kts | 311° |
| 2026-04-20 21:06 | 30.96212 | 30.44488 | 34047 ft | 430 kts | 311° |
| 2026-04-20 21:06 | 31.00565 | 30.39706 | 34049 ft | 430 kts | 311° |
| 2026-04-20 21:07 | 31.04924 | 30.34909 | 34049 ft | 430 kts | 311° |
| 2026-04-20 21:07 | 31.08545 | 30.29495 | 34059 ft | 422 kts | 298° |
| 2026-04-20 21:08 | 31.11150 | 30.23389 | 34059 ft | 420 kts | 288° |
| 2026-04-20 21:08 | 31.12904 | 30.16871 | 34069 ft | 421 kts | 287° |
| 2026-04-20 21:09 | 31.14647 | 30.10331 | 34074 ft | 422 kts | 287° |
| 2026-04-20 21:09 | 31.16426 | 30.03806 | 34079 ft | 422 kts | 287° |
| 2026-04-20 21:10 | 31.18442 | 29.97370 | 34082 ft | 423 kts | 294° |
| 2026-04-20 21:10 | 31.20717 | 29.92286 | 34079 ft | 425 kts | 298° |
| 2026-04-20 21:11 | 31.24621 | 29.85650 | 34077 ft | 427 kts | 303° |
| 2026-04-20 21:11 | 31.28153 | 29.80065 | 34072 ft | 427 kts | 303° |
| 2026-04-20 21:12 | 31.31664 | 29.74478 | 34063 ft | 427 kts | 303° |
| 2026-04-20 21:12 | 31.34576 | 29.69810 | 34063 ft | 427 kts | 303° |
| 2026-04-20 21:13 | 31.38068 | 29.64194 | 34048 ft | 427 kts | 303° |
| 2026-04-20 21:13 | 31.41560 | 29.58567 | 34047 ft | 427 kts | 303° |
| 2026-04-20 21:14 | 31.45040 | 29.52952 | 34051 ft | 427 kts | 303° |
| 2026-04-20 21:14 | 31.48535 | 29.47306 | 34053 ft | 427 kts | 303° |
| 2026-04-20 21:15 | 31.52020 | 29.41668 | 34055 ft | 427 kts | 303° |
| 2026-04-20 21:15 | 31.55482 | 29.36059 | 34061 ft | 427 kts | 303° |
| 2026-04-20 21:16 | 31.58968 | 29.30401 | 34059 ft | 428 kts | 303° |
| 2026-04-20 21:16 | 31.62439 | 29.24720 | 34063 ft | 428 kts | 303° |
| 2026-04-20 21:17 | 31.65900 | 29.19036 | 34063 ft | 428 kts | 303° |
| 2026-04-20 21:17 | 31.69357 | 29.13358 | 34065 ft | 428 kts | 302° |
| 2026-04-20 21:18 | 31.73037 | 29.07843 | 34068 ft | 430 kts | 309° |
| 2026-04-20 21:18 | 31.77374 | 29.03001 | 34068 ft | 435 kts | 316° |
| 2026-04-20 21:19 | 31.82071 | 28.98499 | 34069 ft | 435 kts | 316° |
| 2026-04-20 21:20 | 31.89091 | 28.91788 | 34069 ft | 435 kts | 316° |
| 2026-04-20 21:20 | 31.93778 | 28.87273 | 34066 ft | 434 kts | 316° |
| 2026-04-20 21:21 | 31.98439 | 28.82767 | 34069 ft | 434 kts | 316° |
| 2026-04-20 21:21 | 32.03125 | 28.78230 | 34065 ft | 434 kts | 316° |
| 2026-04-20 21:22 | 32.07794 | 28.73702 | 34066 ft | 434 kts | 316° |
| 2026-04-20 21:22 | 32.12451 | 28.69180 | 34067 ft | 434 kts | 316° |
| 2026-04-20 21:23 | 32.17087 | 28.64674 | 34069 ft | 434 kts | 316° |
| 2026-04-20 21:23 | 32.21741 | 28.60143 | 34064 ft | 433 kts | 316° |
| 2026-04-20 21:24 | 32.26395 | 28.55605 | 34064 ft | 433 kts | 316° |
| 2026-04-20 21:24 | 32.31042 | 28.51069 | 34063 ft | 433 kts | 316° |
| 2026-04-20 21:25 | 32.35657 | 28.46557 | 34063 ft | 433 kts | 316° |
| 2026-04-20 21:25 | 32.40308 | 28.42004 | 34070 ft | 433 kts | 316° |
| 2026-04-20 21:26 | 32.44946 | 28.37458 | 34063 ft | 432 kts | 316° |
| 2026-04-20 21:26 | 32.49551 | 28.32938 | 34065 ft | 432 kts | 316° |
| 2026-04-20 21:27 | 32.54181 | 28.28387 | 34062 ft | 432 kts | 316° |
| 2026-04-20 21:27 | 32.58807 | 28.23834 | 34062 ft | 432 kts | 316° |
| 2026-04-20 21:28 | 32.63435 | 28.19272 | 34058 ft | 432 kts | 316° |
| 2026-04-20 21:28 | 32.68051 | 28.14715 | 34063 ft | 432 kts | 316° |
| 2026-04-20 21:29 | 32.72637 | 28.10182 | 34059 ft | 431 kts | 316° |
| 2026-04-20 21:29 | 32.77252 | 28.05614 | 34058 ft | 431 kts | 316° |
| 2026-04-20 21:30 | 32.81857 | 28.01050 | 34060 ft | 431 kts | 316° |
| 2026-04-20 21:30 | 32.86462 | 27.96479 | 34061 ft | 431 kts | 316° |
| 2026-04-20 21:31 | 32.91057 | 27.91912 | 34058 ft | 430 kts | 316° |
| 2026-04-20 21:31 | 32.95650 | 27.87340 | 34060 ft | 430 kts | 316° |
| 2026-04-20 21:32 | 33.00209 | 27.82796 | 34056 ft | 430 kts | 316° |
| 2026-04-20 21:32 | 33.04786 | 27.78227 | 34062 ft | 429 kts | 316° |
| 2026-04-20 21:33 | 33.09371 | 27.73644 | 34062 ft | 429 kts | 316° |
| 2026-04-20 21:33 | 33.13949 | 27.69062 | 34046 ft | 429 kts | 316° |
| 2026-04-20 21:34 | 33.18515 | 27.64485 | 34049 ft | 429 kts | 316° |
| 2026-04-20 21:34 | 33.23094 | 27.59888 | 34051 ft | 429 kts | 316° |
| 2026-04-20 21:35 | 33.27666 | 27.55293 | 34054 ft | 429 kts | 316° |
| 2026-04-20 21:35 | 33.32235 | 27.50694 | 34052 ft | 429 kts | 316° |
| 2026-04-20 21:36 | 33.36777 | 27.46115 | 34050 ft | 429 kts | 316° |
| 2026-04-20 21:36 | 33.41336 | 27.41513 | 34049 ft | 429 kts | 316° |
| 2026-04-20 21:37 | 33.45907 | 27.36892 | 34048 ft | 429 kts | 316° |
| 2026-04-20 21:37 | 33.50464 | 27.32278 | 34054 ft | 429 kts | 316° |
| 2026-04-20 21:38 | 33.55021 | 27.27658 | 34050 ft | 429 kts | 316° |
| 2026-04-20 21:38 | 33.59578 | 27.23032 | 34051 ft | 429 kts | 315° |
| 2026-04-20 21:39 | 33.64129 | 27.18405 | 34043 ft | 429 kts | 316° |
| 2026-04-20 21:39 | 33.68688 | 27.13763 | 34050 ft | 429 kts | 315° |
| 2026-04-20 21:40 | 33.73210 | 27.09152 | 34051 ft | 429 kts | 315° |
| 2026-04-20 21:40 | 33.77756 | 27.04510 | 34044 ft | 429 kts | 316° |
| 2026-04-20 21:41 | 33.82303 | 26.99860 | 34047 ft | 429 kts | 315° |
| 2026-04-20 21:41 | 33.86845 | 26.95210 | 34049 ft | 428 kts | 315° |
| 2026-04-20 21:42 | 33.91389 | 26.90550 | 34046 ft | 428 kts | 315° |
| 2026-04-20 21:42 | 33.95920 | 26.85896 | 34046 ft | 428 kts | 315° |
| 2026-04-20 21:43 | 34.00456 | 26.81234 | 34044 ft | 428 kts | 316° |
| 2026-04-20 21:43 | 34.05149 | 26.76778 | 34043 ft | 430 kts | 319° |
| 2026-04-20 21:44 | 34.09904 | 26.72449 | 34049 ft | 430 kts | 319° |
| 2026-04-20 21:44 | 34.14660 | 26.68083 | 34050 ft | 430 kts | 318° |
| 2026-04-20 21:45 | 34.19401 | 26.63687 | 34045 ft | 429 kts | 318° |
| 2026-04-20 21:45 | 34.24128 | 26.59282 | 34037 ft | 429 kts | 318° |
| 2026-04-20 21:46 | 34.28856 | 26.54868 | 34040 ft | 428 kts | 318° |
| 2026-04-20 21:46 | 34.33565 | 26.50466 | 34046 ft | 428 kts | 318° |
| 2026-04-20 21:47 | 34.38236 | 26.46093 | 34033 ft | 427 kts | 318° |
| 2026-04-20 21:47 | 34.42939 | 26.41684 | 34036 ft | 427 kts | 318° |
| 2026-04-20 21:48 | 34.47640 | 26.37271 | 34034 ft | 427 kts | 318° |
| 2026-04-20 21:48 | 34.52341 | 26.32851 | 34036 ft | 428 kts | 318° |
| 2026-04-20 21:49 | 34.57050 | 26.28418 | 34036 ft | 428 kts | 318° |
| 2026-04-20 21:49 | 34.61753 | 26.23983 | 34035 ft | 428 kts | 318° |
| 2026-04-20 21:50 | 34.66458 | 26.19540 | 34030 ft | 429 kts | 318° |
| 2026-04-20 21:50 | 34.71147 | 26.15105 | 34033 ft | 429 kts | 318° |
| 2026-04-20 21:51 | 34.75861 | 26.10641 | 34032 ft | 429 kts | 318° |
| 2026-04-20 21:51 | 34.80571 | 26.06173 | 34034 ft | 430 kts | 318° |
| 2026-04-20 21:52 | 34.85303 | 26.01678 | 34033 ft | 431 kts | 318° |
| 2026-04-20 21:52 | 34.90032 | 25.97178 | 34035 ft | 432 kts | 318° |
| 2026-04-20 21:53 | 34.94769 | 25.92665 | 34033 ft | 433 kts | 319° |
| 2026-04-20 21:53 | 34.99483 | 25.88167 | 34034 ft | 433 kts | 319° |
| 2026-04-20 21:54 | 35.04236 | 25.83625 | 34037 ft | 434 kts | 319° |
| 2026-04-20 21:54 | 35.08996 | 25.79070 | 34035 ft | 435 kts | 319° |
| 2026-04-20 21:55 | 35.13758 | 25.74492 | 34034 ft | 435 kts | 319° |
| 2026-04-20 21:55 | 35.18517 | 25.69901 | 34040 ft | 435 kts | 319° |
| 2026-04-20 21:56 | 35.23281 | 25.65304 | 34041 ft | 436 kts | 319° |
| 2026-04-20 21:56 | 35.28049 | 25.60710 | 34042 ft | 437 kts | 319° |
| 2026-04-20 21:57 | 35.32806 | 25.56124 | 34027 ft | 439 kts | 319° |
| 2026-04-20 21:57 | 35.37620 | 25.51473 | 34037 ft | 439 kts | 319° |
| 2026-04-20 21:58 | 35.42416 | 25.46833 | 34039 ft | 439 kts | 319° |
| 2026-04-20 21:58 | 35.47210 | 25.42186 | 34038 ft | 439 kts | 319° |
| 2026-04-20 21:59 | 35.52013 | 25.37523 | 34037 ft | 440 kts | 319° |
| 2026-04-20 21:59 | 35.56806 | 25.32863 | 34038 ft | 440 kts | 319° |
| 2026-04-20 22:00 | 35.61575 | 25.28219 | 34035 ft | 440 kts | 319° |
| 2026-04-20 22:00 | 35.66370 | 25.23542 | 34035 ft | 440 kts | 319° |
| 2026-04-20 22:01 | 35.71179 | 25.18844 | 34028 ft | 441 kts | 319° |
| 2026-04-20 22:01 | 35.75178 | 25.14931 | 34032 ft | 441 kts | 319° |
| 2026-04-20 22:02 | 35.79979 | 25.10228 | 34031 ft | 441 kts | 319° |
| 2026-04-20 22:02 | 35.84786 | 25.05511 | 34030 ft | 442 kts | 319° |
| 2026-04-20 22:03 | 35.89598 | 25.00782 | 34032 ft | 442 kts | 320° |
| 2026-04-20 22:03 | 35.94413 | 24.96041 | 34049 ft | 442 kts | 320° |
| 2026-04-20 22:04 | 35.99199 | 24.91322 | 34033 ft | 443 kts | 320° |
| 2026-04-20 22:04 | 36.04013 | 24.86570 | 34034 ft | 443 kts | 320° |
| 2026-04-20 22:05 | 36.08837 | 24.81798 | 34021 ft | 444 kts | 320° |
| 2026-04-20 22:05 | 36.13665 | 24.77017 | 34022 ft | 444 kts | 320° |
| 2026-04-20 22:06 | 36.18493 | 24.72229 | 34018 ft | 445 kts | 320° |
| 2026-04-20 22:06 | 36.23305 | 24.67449 | 34018 ft | 445 kts | 320° |
| 2026-04-20 22:07 | 36.28131 | 24.62648 | 34019 ft | 445 kts | 320° |
| 2026-04-20 22:07 | 36.32960 | 24.57836 | 34014 ft | 445 kts | 320° |
| 2026-04-20 22:08 | 36.37784 | 24.53020 | 34014 ft | 445 kts | 320° |
| 2026-04-20 22:08 | 36.42607 | 24.48199 | 34010 ft | 445 kts | 320° |
| 2026-04-20 22:09 | 36.47430 | 24.43369 | 34009 ft | 445 kts | 320° |
| 2026-04-20 22:09 | 36.52251 | 24.38525 | 34007 ft | 445 kts | 320° |
| 2026-04-20 22:10 | 36.57044 | 24.33700 | 34006 ft | 446 kts | 320° |
| 2026-04-20 22:10 | 36.61845 | 24.28860 | 34006 ft | 446 kts | 320° |
| 2026-04-20 22:11 | 36.66679 | 24.23980 | 34001 ft | 446 kts | 320° |
| 2026-04-20 22:11 | 36.71506 | 24.19099 | 34004 ft | 446 kts | 320° |
| 2026-04-20 22:12 | 36.76319 | 24.14222 | 34003 ft | 446 kts | 320° |
| 2026-04-20 22:12 | 36.81124 | 24.09347 | 34002 ft | 446 kts | 320° |
| 2026-04-20 22:13 | 36.85911 | 24.04483 | 34003 ft | 446 kts | 320° |
| 2026-04-20 22:13 | 36.90731 | 23.99577 | 33998 ft | 446 kts | 320° |
| 2026-04-20 22:14 | 36.95540 | 23.94675 | 33997 ft | 447 kts | 320° |
| 2026-04-20 22:14 | 37.00363 | 23.89755 | 33996 ft | 447 kts | 320° |
| 2026-04-20 22:15 | 37.05187 | 23.84827 | 33997 ft | 447 kts | 320° |
| 2026-04-20 22:15 | 37.10003 | 23.79897 | 33997 ft | 447 kts | 320° |
| 2026-04-20 22:16 | 37.14818 | 23.74960 | 33994 ft | 447 kts | 320° |
| 2026-04-20 22:16 | 37.19630 | 23.70018 | 33994 ft | 447 kts | 320° |
| 2026-04-20 22:17 | 37.24444 | 23.65065 | 33994 ft | 447 kts | 319° |
| 2026-04-20 22:17 | 37.29256 | 23.60106 | 33991 ft | 447 kts | 319° |
| 2026-04-20 22:18 | 37.34037 | 23.55171 | 33992 ft | 448 kts | 319° |
| 2026-04-20 22:18 | 37.38851 | 23.50192 | 33996 ft | 448 kts | 319° |
| 2026-04-20 22:19 | 37.43667 | 23.45203 | 34000 ft | 448 kts | 319° |
| 2026-04-20 22:19 | 37.48491 | 23.40197 | 34001 ft | 449 kts | 319° |
| 2026-04-20 22:20 | 37.53315 | 23.35183 | 33999 ft | 449 kts | 319° |
| 2026-04-20 22:20 | 37.58098 | 23.30203 | 34002 ft | 449 kts | 319° |
| 2026-04-20 22:21 | 37.62939 | 23.25154 | 34005 ft | 449 kts | 319° |
| 2026-04-20 22:21 | 37.67719 | 23.20160 | 34007 ft | 449 kts | 319° |
| 2026-04-20 22:22 | 37.72531 | 23.15123 | 34006 ft | 448 kts | 319° |
| 2026-04-20 22:22 | 37.77323 | 23.10098 | 34001 ft | 448 kts | 319° |
| 2026-04-20 22:23 | 37.82123 | 23.05057 | 34009 ft | 448 kts | 319° |
| 2026-04-20 22:23 | 37.86931 | 22.99998 | 34009 ft | 449 kts | 319° |
| 2026-04-20 22:24 | 37.91746 | 22.94924 | 34014 ft | 449 kts | 319° |
| 2026-04-20 22:24 | 37.96470 | 22.89839 | 34008 ft | 449 kts | 317° |
| 2026-04-20 22:25 | 38.01158 | 22.84618 | 34009 ft | 449 kts | 317° |
| 2026-04-20 22:25 | 38.05847 | 22.79378 | 34014 ft | 449 kts | 317° |
| 2026-04-20 22:26 | 38.10542 | 22.74145 | 34015 ft | 449 kts | 317° |
| 2026-04-20 22:26 | 38.15253 | 22.68897 | 34015 ft | 450 kts | 317° |
| 2026-04-20 22:27 | 38.22290 | 22.61045 | 34015 ft | 451 kts | 317° |
| 2026-04-20 22:27 | 38.27006 | 22.55769 | 34016 ft | 451 kts | 317° |
| 2026-04-20 22:28 | 38.31722 | 22.50484 | 34023 ft | 451 kts | 317° |
| 2026-04-20 22:28 | 38.36431 | 22.45199 | 34026 ft | 451 kts | 317° |
| 2026-04-20 22:29 | 38.41138 | 22.39905 | 34030 ft | 451 kts | 317° |
| 2026-04-20 22:29 | 38.45846 | 22.34600 | 34033 ft | 451 kts | 317° |
| 2026-04-20 22:30 | 38.50549 | 22.29292 | 34039 ft | 451 kts | 316° |
| 2026-04-20 22:30 | 38.55227 | 22.24002 | 34048 ft | 452 kts | 316° |
| 2026-04-20 22:31 | 38.59938 | 22.18665 | 34030 ft | 452 kts | 316° |
| 2026-04-20 22:31 | 38.64639 | 22.13330 | 34065 ft | 451 kts | 316° |
| 2026-04-20 22:32 | 38.69334 | 22.07991 | 34066 ft | 452 kts | 316° |
| 2026-04-20 22:32 | 38.74038 | 22.02632 | 34042 ft | 453 kts | 316° |
| 2026-04-20 22:33 | 38.78751 | 21.97255 | 34045 ft | 453 kts | 316° |
| 2026-04-20 22:33 | 38.83451 | 21.91881 | 34081 ft | 453 kts | 316° |
| 2026-04-20 22:34 | 38.88162 | 21.86485 | 34074 ft | 453 kts | 316° |
| 2026-04-20 22:34 | 38.92834 | 21.81123 | 34052 ft | 453 kts | 316° |
| 2026-04-20 22:35 | 38.97494 | 21.75768 | 34042 ft | 444 kts | 316° |
| 2026-04-20 22:35 | 39.02072 | 21.70497 | 34062 ft | 442 kts | 316° |
| 2026-04-20 22:36 | 39.06649 | 21.65214 | 34044 ft | 442 kts | 316° |
| 2026-04-20 22:36 | 39.11228 | 21.59919 | 34068 ft | 442 kts | 316° |
| 2026-04-20 22:37 | 39.15800 | 21.54624 | 34038 ft | 443 kts | 316° |
| 2026-04-20 22:37 | 39.20390 | 21.49300 | 34068 ft | 443 kts | 316° |
| 2026-04-20 22:38 | 39.24966 | 21.43982 | 34070 ft | 443 kts | 316° |
| 2026-04-20 22:38 | 39.29508 | 21.38692 | 34069 ft | 442 kts | 316° |
| 2026-04-20 22:39 | 39.34063 | 21.33379 | 34086 ft | 441 kts | 316° |
| 2026-04-20 22:39 | 39.38613 | 21.28061 | 34088 ft | 439 kts | 316° |
| 2026-04-20 22:40 | 39.43146 | 21.22755 | 34088 ft | 438 kts | 316° |
| 2026-04-20 22:40 | 39.47620 | 21.17507 | 34079 ft | 436 kts | 316° |
| 2026-04-20 22:41 | 39.52117 | 21.12223 | 34074 ft | 435 kts | 316° |
| 2026-04-20 22:41 | 39.56598 | 21.06948 | 34079 ft | 434 kts | 316° |
| 2026-04-20 22:42 | 39.61067 | 21.01676 | 34083 ft | 433 kts | 316° |
| 2026-04-20 22:42 | 39.65520 | 20.96415 | 34087 ft | 433 kts | 316° |
| 2026-04-20 22:43 | 39.69984 | 20.91130 | 34074 ft | 433 kts | 316° |
| 2026-04-20 22:43 | 39.74436 | 20.85851 | 34085 ft | 434 kts | 316° |
| 2026-04-20 22:44 | 39.78862 | 20.80593 | 34086 ft | 434 kts | 316° |
| 2026-04-20 22:44 | 39.83320 | 20.75287 | 34083 ft | 434 kts | 316° |
| 2026-04-20 22:45 | 39.87795 | 20.69951 | 34079 ft | 434 kts | 316° |
| 2026-04-20 22:45 | 39.92217 | 20.64669 | 34076 ft | 434 kts | 316° |
| 2026-04-20 22:46 | 39.96671 | 20.59338 | 34066 ft | 433 kts | 316° |
| 2026-04-20 22:46 | 40.01108 | 20.54020 | 34059 ft | 433 kts | 316° |
| 2026-04-20 22:47 | 40.05532 | 20.48707 | 34053 ft | 432 kts | 316° |
| 2026-04-20 22:47 | 40.10244 | 20.43820 | 34069 ft | 433 kts | 321° |
| 2026-04-20 22:48 | 40.14304 | 20.39950 | 34052 ft | 434 kts | 321° |
| 2026-04-20 22:48 | 40.19972 | 20.34523 | 34050 ft | 434 kts | 321° |
| 2026-04-20 22:49 | 40.24844 | 20.29826 | 34057 ft | 434 kts | 321° |
| 2026-04-20 22:49 | 40.29704 | 20.25124 | 34047 ft | 434 kts | 321° |
| 2026-04-20 22:50 | 40.33736 | 20.21218 | 34047 ft | 434 kts | 321° |
| 2026-04-20 22:50 | 40.38592 | 20.16504 | 34040 ft | 434 kts | 321° |
| 2026-04-20 22:51 | 40.43454 | 20.11778 | 34037 ft | 434 kts | 321° |
| 2026-04-20 22:51 | 40.48303 | 20.07055 | 34031 ft | 433 kts | 321° |
| 2026-04-20 22:52 | 40.53128 | 20.02348 | 34027 ft | 434 kts | 321° |
| 2026-04-20 22:52 | 40.57965 | 19.97613 | 34030 ft | 433 kts | 321° |
| 2026-04-20 22:53 | 40.62802 | 19.92864 | 34019 ft | 433 kts | 321° |
| 2026-04-20 22:53 | 40.67625 | 19.88120 | 34012 ft | 433 kts | 321° |
| 2026-04-20 22:54 | 40.72449 | 19.83367 | 34011 ft | 433 kts | 321° |
| 2026-04-20 22:54 | 40.77280 | 19.78599 | 34010 ft | 433 kts | 321° |
| 2026-04-20 22:55 | 40.82104 | 19.73829 | 34001 ft | 433 kts | 321° |
| 2026-04-20 22:55 | 40.86898 | 19.69080 | 34006 ft | 433 kts | 321° |
| 2026-04-20 22:56 | 40.91716 | 19.64299 | 34003 ft | 432 kts | 321° |
| 2026-04-20 22:56 | 40.96523 | 19.59518 | 34005 ft | 432 kts | 321° |
| 2026-04-20 22:57 | 41.01330 | 19.54730 | 34004 ft | 432 kts | 321° |
| 2026-04-20 22:57 | 41.06097 | 19.49972 | 34005 ft | 431 kts | 321° |
| 2026-04-20 22:58 | 41.10914 | 19.45155 | 34000 ft | 431 kts | 321° |
| 2026-04-20 22:58 | 41.15670 | 19.40391 | 34005 ft | 430 kts | 320° |
| 2026-04-20 22:59 | 41.20445 | 19.35599 | 34006 ft | 430 kts | 320° |
| 2026-04-20 22:59 | 41.25220 | 19.30797 | 34007 ft | 429 kts | 320° |
| 2026-04-20 23:00 | 41.29951 | 19.26031 | 34003 ft | 429 kts | 320° |
| 2026-04-20 23:00 | 41.34712 | 19.21226 | 34003 ft | 429 kts | 320° |
| 2026-04-20 23:01 | 41.39465 | 19.16419 | 34003 ft | 428 kts | 320° |
| 2026-04-20 23:01 | 41.44202 | 19.11622 | 34004 ft | 428 kts | 320° |
| 2026-04-20 23:02 | 41.48945 | 19.06798 | 34000 ft | 428 kts | 320° |
| 2026-04-20 23:02 | 41.53674 | 19.01965 | 33982 ft | 428 kts | 320° |
| 2026-04-20 23:03 | 41.58405 | 18.97121 | 33991 ft | 429 kts | 320° |
| 2026-04-20 23:03 | 41.63106 | 18.92302 | 33997 ft | 429 kts | 320° |
| 2026-04-20 23:04 | 41.67838 | 18.87440 | 33983 ft | 428 kts | 320° |
| 2026-04-20 23:04 | 41.72562 | 18.82579 | 33985 ft | 429 kts | 320° |
| 2026-04-20 23:05 | 41.77296 | 18.77698 | 33992 ft | 429 kts | 320° |
| 2026-04-20 23:05 | 41.82018 | 18.72820 | 33988 ft | 429 kts | 320° |
| 2026-04-20 23:06 | 41.86717 | 18.67957 | 33989 ft | 429 kts | 320° |
| 2026-04-20 23:06 | 41.91477 | 18.63021 | 33985 ft | 429 kts | 319° |
| 2026-04-20 23:07 | 41.96205 | 18.58110 | 33984 ft | 429 kts | 319° |
| 2026-04-20 23:07 | 42.00656 | 18.52905 | 33990 ft | 426 kts | 312° |
| 2026-04-20 23:08 | 42.04474 | 18.46845 | 33982 ft | 424 kts | 304° |
| 2026-04-20 23:08 | 42.07834 | 18.40318 | 33981 ft | 424 kts | 303° |
| 2026-04-20 23:09 | 42.11161 | 18.33759 | 33977 ft | 424 kts | 303° |
| 2026-04-20 23:09 | 42.14495 | 18.27206 | 33975 ft | 424 kts | 303° |
| 2026-04-20 23:10 | 42.17834 | 18.20659 | 33973 ft | 423 kts | 303° |
| 2026-04-20 23:10 | 42.21171 | 18.14113 | 33971 ft | 423 kts | 303° |
| 2026-04-20 23:11 | 42.24498 | 18.07575 | 33970 ft | 423 kts | 303° |
| 2026-04-20 23:11 | 42.27814 | 18.01046 | 33975 ft | 423 kts | 303° |
| 2026-04-20 23:12 | 42.31144 | 17.94472 | 33978 ft | 422 kts | 303° |
| 2026-04-20 23:12 | 42.34462 | 17.87907 | 33971 ft | 422 kts | 303° |
| 2026-04-20 23:13 | 42.37756 | 17.81377 | 33973 ft | 423 kts | 303° |
| 2026-04-20 23:13 | 42.41066 | 17.74799 | 33979 ft | 423 kts | 303° |
| 2026-04-20 23:14 | 42.44370 | 17.68221 | 33978 ft | 423 kts | 303° |
| 2026-04-20 23:14 | 42.47671 | 17.61633 | 33978 ft | 423 kts | 303° |
| 2026-04-20 23:15 | 42.50974 | 17.55026 | 33983 ft | 423 kts | 303° |
| 2026-04-20 23:15 | 42.54264 | 17.48430 | 33984 ft | 422 kts | 302° |
| 2026-04-20 23:16 | 42.57553 | 17.41823 | 33985 ft | 422 kts | 302° |
| 2026-04-20 23:16 | 42.60816 | 17.35254 | 33981 ft | 422 kts | 302° |
| 2026-04-20 23:17 | 42.64090 | 17.28648 | 33983 ft | 422 kts | 302° |
| 2026-04-20 23:17 | 42.67366 | 17.22024 | 33985 ft | 422 kts | 302° |
| 2026-04-20 23:18 | 42.70641 | 17.15386 | 33981 ft | 422 kts | 302° |
| 2026-04-20 23:18 | 42.73881 | 17.08805 | 33982 ft | 421 kts | 302° |
| 2026-04-20 23:19 | 42.77143 | 17.02163 | 33984 ft | 421 kts | 302° |
| 2026-04-20 23:19 | 42.80395 | 16.95527 | 33979 ft | 421 kts | 302° |
| 2026-04-20 23:20 | 42.83646 | 16.88880 | 33980 ft | 421 kts | 302° |
| 2026-04-20 23:20 | 42.86891 | 16.82229 | 33980 ft | 421 kts | 302° |
| 2026-04-20 23:21 | 42.90137 | 16.75563 | 33977 ft | 421 kts | 302° |
| 2026-04-20 23:21 | 42.93371 | 16.68904 | 33978 ft | 421 kts | 302° |
| 2026-04-20 23:22 | 42.96606 | 16.62228 | 33974 ft | 421 kts | 302° |
| 2026-04-20 23:22 | 42.99831 | 16.55561 | 33973 ft | 421 kts | 301° |
| 2026-04-20 23:23 | 43.03043 | 16.48903 | 33973 ft | 421 kts | 301° |
| 2026-04-20 23:23 | 43.06270 | 16.42199 | 33973 ft | 421 kts | 301° |
| 2026-04-20 23:24 | 43.09488 | 16.35501 | 33969 ft | 421 kts | 301° |
| 2026-04-20 23:24 | 43.12689 | 16.28820 | 33967 ft | 421 kts | 301° |
| 2026-04-20 23:25 | 43.15901 | 16.22102 | 33966 ft | 422 kts | 301° |
| 2026-04-20 23:25 | 43.19114 | 16.15368 | 33968 ft | 422 kts | 301° |
| 2026-04-20 23:26 | 43.22321 | 16.08630 | 33964 ft | 422 kts | 301° |
| 2026-04-20 23:26 | 43.25525 | 16.01882 | 33965 ft | 422 kts | 301° |
| 2026-04-20 23:27 | 43.28721 | 15.95137 | 33963 ft | 422 kts | 301° |
| 2026-04-20 23:27 | 43.31895 | 15.88422 | 33962 ft | 422 kts | 301° |
| 2026-04-20 23:28 | 43.35087 | 15.81653 | 33966 ft | 422 kts | 300° |
| 2026-04-20 23:28 | 43.38287 | 15.74853 | 33970 ft | 422 kts | 300° |
| 2026-04-20 23:29 | 43.41477 | 15.68058 | 33968 ft | 423 kts | 300° |
| 2026-04-20 23:29 | 43.44643 | 15.61297 | 33970 ft | 423 kts | 300° |
| 2026-04-20 23:30 | 43.47847 | 15.54442 | 33967 ft | 423 kts | 300° |
| 2026-04-20 23:30 | 43.51009 | 15.47658 | 33970 ft | 423 kts | 300° |
| 2026-04-20 23:31 | 43.54183 | 15.40834 | 33970 ft | 423 kts | 300° |
| 2026-04-20 23:31 | 43.57356 | 15.33995 | 33971 ft | 423 kts | 300° |
| 2026-04-20 23:32 | 43.60530 | 15.27140 | 33964 ft | 424 kts | 300° |
| 2026-04-20 23:32 | 43.63700 | 15.20278 | 33969 ft | 424 kts | 300° |
| 2026-04-20 23:33 | 43.66866 | 15.13406 | 33970 ft | 424 kts | 300° |
| 2026-04-20 23:33 | 43.68449 | 15.09963 | 34166 ft | 425 kts | 300° |
| 2026-04-20 23:33 | 43.70015 | 15.06555 | 34498 ft | 424 kts | 300° |
| 2026-04-20 23:34 | 43.71610 | 15.03078 | 34848 ft | 423 kts | 300° |
| 2026-04-20 23:34 | 43.73163 | 14.99691 | 35130 ft | 422 kts | 300° |
| 2026-04-20 23:34 | 43.74739 | 14.96248 | 35400 ft | 423 kts | 300° |
| 2026-04-20 23:34 | 43.76308 | 14.92815 | 35660 ft | 423 kts | 300° |
| 2026-04-20 23:35 | 43.77886 | 14.89361 | 35923 ft | 424 kts | 300° |
| 2026-04-20 23:35 | 43.81018 | 14.82489 | 36406 ft | 425 kts | 300° |
| 2026-04-20 23:35 | 43.82612 | 14.78987 | 36669 ft | 425 kts | 300° |
| 2026-04-20 23:36 | 43.83656 | 14.76690 | 36826 ft | 425 kts | 300° |
| 2026-04-20 23:36 | 43.85235 | 14.73214 | 37056 ft | 426 kts | 300° |
| 2026-04-20 23:36 | 43.87329 | 14.68599 | 37366 ft | 426 kts | 300° |
| 2026-04-20 23:36 | 43.88904 | 14.65120 | 37595 ft | 427 kts | 300° |
| 2026-04-20 23:37 | 43.90486 | 14.61624 | 37816 ft | 427 kts | 300° |
| 2026-04-20 23:37 | 43.93112 | 14.55808 | 37919 ft | 430 kts | 300° |
| 2026-04-20 23:38 | 43.96284 | 14.48771 | 37962 ft | 429 kts | 300° |
| 2026-04-20 23:38 | 43.99437 | 14.41759 | 37967 ft | 426 kts | 300° |
| 2026-04-20 23:39 | 44.02559 | 14.34798 | 37970 ft | 425 kts | 300° |
| 2026-04-20 23:39 | 44.05678 | 14.27825 | 37971 ft | 425 kts | 300° |
| 2026-04-20 23:40 | 44.08799 | 14.20833 | 37972 ft | 425 kts | 300° |
| 2026-04-20 23:40 | 44.11911 | 14.13843 | 37965 ft | 426 kts | 300° |
| 2026-04-20 23:41 | 44.15032 | 14.06816 | 37966 ft | 427 kts | 300° |
| 2026-04-20 23:41 | 44.18152 | 13.99775 | 37970 ft | 428 kts | 300° |
| 2026-04-20 23:42 | 44.21280 | 13.92698 | 37969 ft | 429 kts | 300° |
| 2026-04-20 23:42 | 44.24389 | 13.85647 | 37966 ft | 430 kts | 300° |
| 2026-04-20 23:43 | 44.27510 | 13.78550 | 37966 ft | 431 kts | 300° |
| 2026-04-20 23:43 | 44.30656 | 13.71382 | 37967 ft | 432 kts | 300° |
| 2026-04-20 23:44 | 44.33789 | 13.64223 | 37963 ft | 432 kts | 300° |
| 2026-04-20 23:44 | 44.36927 | 13.57037 | 37965 ft | 432 kts | 300° |
| 2026-04-20 23:45 | 44.40036 | 13.49899 | 37964 ft | 432 kts | 300° |
| 2026-04-20 23:45 | 44.42790 | 13.42475 | 37965 ft | 431 kts | 292° |
| 2026-04-20 23:46 | 44.45063 | 13.34695 | 37970 ft | 430 kts | 291° |
| 2026-04-20 23:46 | 44.47319 | 13.26938 | 37962 ft | 430 kts | 292° |
| 2026-04-20 23:47 | 44.49569 | 13.19229 | 37965 ft | 430 kts | 292° |
| 2026-04-20 23:47 | 44.51844 | 13.11446 | 37952 ft | 430 kts | 292° |
| 2026-04-20 23:48 | 44.54102 | 13.03705 | 37969 ft | 429 kts | 292° |
| 2026-04-20 23:48 | 44.56348 | 12.95979 | 37970 ft | 429 kts | 292° |
| 2026-04-20 23:49 | 44.58601 | 12.88205 | 37967 ft | 429 kts | 291° |
| 2026-04-20 23:49 | 44.60845 | 12.80439 | 37968 ft | 429 kts | 291° |
| 2026-04-20 23:50 | 44.63083 | 12.72669 | 37948 ft | 429 kts | 291° |
| 2026-04-20 23:50 | 44.65316 | 12.64890 | 37937 ft | 429 kts | 291° |
| 2026-04-20 23:51 | 44.67526 | 12.57172 | 37946 ft | 429 kts | 291° |
| 2026-04-20 23:51 | 44.69744 | 12.49397 | 37960 ft | 429 kts | 291° |
| 2026-04-20 23:52 | 44.71955 | 12.41624 | 37944 ft | 428 kts | 291° |
| 2026-04-20 23:52 | 44.74166 | 12.33826 | 37948 ft | 428 kts | 291° |
| 2026-04-20 23:53 | 44.76368 | 12.26035 | 37940 ft | 428 kts | 291° |
| 2026-04-20 23:53 | 44.78563 | 12.18245 | 37938 ft | 428 kts | 291° |
| 2026-04-20 23:54 | 44.80756 | 12.10436 | 37942 ft | 428 kts | 291° |
| 2026-04-20 23:54 | 44.82940 | 12.02636 | 37957 ft | 428 kts | 291° |
| 2026-04-20 23:55 | 44.85100 | 11.94896 | 37949 ft | 428 kts | 291° |
| 2026-04-20 23:55 | 44.87290 | 11.87021 | 37962 ft | 429 kts | 291° |
| 2026-04-20 23:56 | 44.89461 | 11.79192 | 37978 ft | 429 kts | 291° |
| 2026-04-20 23:56 | 44.91626 | 11.71360 | 37964 ft | 429 kts | 291° |
| 2026-04-20 23:57 | 44.93790 | 11.63504 | 37969 ft | 429 kts | 291° |
| 2026-04-20 23:57 | 44.95948 | 11.55644 | 37970 ft | 429 kts | 291° |
| 2026-04-20 23:58 | 44.98083 | 11.47847 | 37969 ft | 429 kts | 291° |
| 2026-04-20 23:58 | 45.00233 | 11.39967 | 37963 ft | 429 kts | 291° |
| 2026-04-20 23:59 | 45.02373 | 11.32096 | 37962 ft | 429 kts | 291° |
| 2026-04-20 23:59 | 45.04515 | 11.24192 | 37932 ft | 429 kts | 291° |
| 2026-04-21 00:00 | 45.06645 | 11.16307 | 37917 ft | 429 kts | 291° |
| 2026-04-21 00:00 | 45.08765 | 11.08436 | 37929 ft | 429 kts | 291° |
| 2026-04-21 00:01 | 45.10872 | 11.00583 | 37909 ft | 428 kts | 291° |
| 2026-04-21 00:01 | 45.12981 | 10.92700 | 37909 ft | 428 kts | 291° |
| 2026-04-21 00:02 | 45.15090 | 10.84789 | 37915 ft | 428 kts | 291° |
| 2026-04-21 00:02 | 45.17186 | 10.76904 | 37936 ft | 427 kts | 291° |
| 2026-04-21 00:03 | 45.19277 | 10.69007 | 37945 ft | 427 kts | 290° |
| 2026-04-21 00:03 | 45.21350 | 10.61154 | 37941 ft | 427 kts | 290° |
| 2026-04-21 00:04 | 45.23424 | 10.53269 | 37925 ft | 427 kts | 290° |
| 2026-04-21 00:04 | 45.25494 | 10.45376 | 37936 ft | 427 kts | 290° |
| 2026-04-21 00:05 | 45.27559 | 10.37476 | 37932 ft | 427 kts | 290° |
| 2026-04-21 00:05 | 45.29603 | 10.29628 | 37949 ft | 427 kts | 290° |
| 2026-04-21 00:06 | 45.31660 | 10.21703 | 37923 ft | 427 kts | 290° |
| 2026-04-21 00:06 | 45.33713 | 10.13766 | 37918 ft | 427 kts | 290° |
| 2026-04-21 00:07 | 45.35759 | 10.05829 | 37905 ft | 428 kts | 290° |
| 2026-04-21 00:07 | 45.37804 | 9.97871 | 37907 ft | 428 kts | 290° |
| 2026-04-21 00:08 | 45.39842 | 9.89910 | 37904 ft | 428 kts | 290° |
| 2026-04-21 00:08 | 45.41874 | 9.81949 | 37964 ft | 428 kts | 290° |
| 2026-04-21 00:09 | 45.43889 | 9.74022 | 37988 ft | 428 kts | 290° |
| 2026-04-21 00:09 | 45.45910 | 9.66050 | 38009 ft | 428 kts | 290° |
| 2026-04-21 00:10 | 45.47926 | 9.58067 | 38011 ft | 428 kts | 289° |
| 2026-04-21 00:10 | 45.49933 | 9.50091 | 38006 ft | 427 kts | 289° |
| 2026-04-21 00:11 | 45.51931 | 9.42123 | 38025 ft | 427 kts | 289° |
| 2026-04-21 00:11 | 45.53931 | 9.34122 | 37941 ft | 427 kts | 289° |
| 2026-04-21 00:12 | 45.55587 | 9.27474 | 37940 ft | 428 kts | 289° |
| 2026-04-21 00:12 | 45.57196 | 9.20997 | 37936 ft | 428 kts | 289° |
| 2026-04-21 00:13 | 45.59184 | 9.12967 | 37936 ft | 429 kts | 289° |
| 2026-04-21 00:13 | 45.61169 | 9.04923 | 37937 ft | 429 kts | 289° |
| 2026-04-21 00:14 | 45.63148 | 8.96873 | 37939 ft | 430 kts | 289° |
| 2026-04-21 00:14 | 45.65122 | 8.88818 | 37941 ft | 430 kts | 289° |
| 2026-04-21 00:15 | 45.67095 | 8.80733 | 37940 ft | 430 kts | 289° |
| 2026-04-21 00:15 | 45.69058 | 8.72662 | 37941 ft | 429 kts | 289° |
| 2026-04-21 00:16 | 45.71015 | 8.64587 | 37938 ft | 429 kts | 289° |
| 2026-04-21 00:16 | 45.72950 | 8.56576 | 37937 ft | 429 kts | 289° |
| 2026-04-21 00:17 | 45.74893 | 8.48502 | 37934 ft | 428 kts | 289° |
| 2026-04-21 00:17 | 45.76832 | 8.40413 | 37938 ft | 428 kts | 289° |
| 2026-04-21 00:18 | 45.78753 | 8.32371 | 37935 ft | 428 kts | 289° |
| 2026-04-21 00:18 | 45.80684 | 8.24257 | 37941 ft | 429 kts | 289° |
| 2026-04-21 00:19 | 45.82611 | 8.16136 | 37934 ft | 431 kts | 288° |
| 2026-04-21 00:19 | 45.84539 | 8.07973 | 37946 ft | 432 kts | 288° |
| 2026-04-21 00:20 | 45.86459 | 7.99821 | 37938 ft | 432 kts | 288° |
| 2026-04-21 00:20 | 45.88366 | 7.91686 | 37940 ft | 432 kts | 288° |
| 2026-04-21 00:21 | 45.90281 | 7.83490 | 37967 ft | 433 kts | 288° |
| 2026-04-21 00:21 | 45.92194 | 7.75277 | 37967 ft | 435 kts | 288° |
| 2026-04-21 00:22 | 45.94112 | 7.67014 | 37980 ft | 437 kts | 288° |
| 2026-04-21 00:22 | 45.96140 | 7.58800 | 38009 ft | 438 kts | 294° |
| 2026-04-21 00:23 | 45.99067 | 7.51039 | 38014 ft | 439 kts | 301° |
| 2026-04-21 00:23 | 46.02712 | 7.43978 | 38026 ft | 439 kts | 306° |
| 2026-04-21 00:24 | 46.06516 | 7.37202 | 38025 ft | 438 kts | 307° |
| 2026-04-21 00:24 | 46.10322 | 7.30386 | 38058 ft | 437 kts | 307° |
| 2026-04-21 00:25 | 46.14113 | 7.23529 | 38037 ft | 438 kts | 306° |
| 2026-04-21 00:25 | 46.17255 | 7.17808 | 38043 ft | 439 kts | 306° |
| 2026-04-21 00:26 | 46.21063 | 7.10854 | 38048 ft | 441 kts | 306° |
| 2026-04-21 00:26 | 46.24869 | 7.03893 | 38046 ft | 442 kts | 307° |
| 2026-04-21 00:27 | 46.28671 | 6.96924 | 38046 ft | 440 kts | 306° |
| 2026-04-21 00:27 | 46.32448 | 6.89984 | 38043 ft | 438 kts | 306° |
| 2026-04-21 00:28 | 46.36215 | 6.83042 | 38039 ft | 437 kts | 306° |
| 2026-04-21 00:28 | 46.39948 | 6.76148 | 38038 ft | 436 kts | 306° |
| 2026-04-21 00:29 | 46.43645 | 6.69274 | 38046 ft | 434 kts | 305° |
| 2026-04-21 00:29 | 46.46516 | 6.62738 | 38051 ft | 432 kts | 299° |
| 2026-04-21 00:30 | 46.49492 | 6.55142 | 38049 ft | 433 kts | 298° |
| 2026-04-21 00:30 | 46.52469 | 6.47538 | 38055 ft | 433 kts | 299° |
| 2026-04-21 00:31 | 46.55462 | 6.39922 | 38055 ft | 434 kts | 299° |
| 2026-04-21 00:31 | 46.58457 | 6.32303 | 38042 ft | 434 kts | 299° |
| 2026-04-21 00:32 | 46.61447 | 6.24675 | 38073 ft | 435 kts | 298° |
| 2026-04-21 00:32 | 46.64440 | 6.17020 | 38076 ft | 435 kts | 298° |
| 2026-04-21 00:33 | 46.67416 | 6.09384 | 38076 ft | 436 kts | 298° |
| 2026-04-21 00:33 | 46.70416 | 6.01666 | 38056 ft | 437 kts | 298° |
| 2026-04-21 00:34 | 46.73387 | 5.94000 | 38057 ft | 437 kts | 298° |
| 2026-04-21 00:34 | 46.76373 | 5.86277 | 38057 ft | 436 kts | 298° |
| 2026-04-21 00:35 | 46.79343 | 5.78573 | 38054 ft | 436 kts | 298° |
| 2026-04-21 00:35 | 46.82545 | 5.71043 | 38075 ft | 436 kts | 305° |
| 2026-04-21 00:36 | 46.86413 | 5.64196 | 38076 ft | 437 kts | 308° |
| 2026-04-21 00:36 | 46.90338 | 5.57418 | 38058 ft | 437 kts | 308° |
| 2026-04-21 00:37 | 46.94245 | 5.50626 | 38079 ft | 436 kts | 308° |
| 2026-04-21 00:37 | 46.98147 | 5.43797 | 38065 ft | 436 kts | 308° |
| 2026-04-21 00:38 | 47.02041 | 5.36952 | 38067 ft | 437 kts | 308° |
| 2026-04-21 00:38 | 47.05929 | 5.30100 | 38080 ft | 437 kts | 308° |
| 2026-04-21 00:39 | 47.09781 | 5.23293 | 38075 ft | 437 kts | 308° |
| 2026-04-21 00:39 | 47.13673 | 5.16401 | 38084 ft | 437 kts | 308° |
| 2026-04-21 00:40 | 47.17555 | 5.09509 | 38083 ft | 437 kts | 308° |
| 2026-04-21 00:40 | 47.21431 | 5.02611 | 38099 ft | 438 kts | 308° |
| 2026-04-21 00:41 | 47.25292 | 4.95721 | 38097 ft | 438 kts | 308° |
| 2026-04-21 00:41 | 47.29138 | 4.88841 | 38100 ft | 438 kts | 308° |
| 2026-04-21 00:42 | 47.33026 | 4.81867 | 38095 ft | 439 kts | 308° |
| 2026-04-21 00:42 | 47.36923 | 4.74861 | 38104 ft | 439 kts | 308° |
| 2026-04-21 00:43 | 47.40768 | 4.67928 | 38115 ft | 440 kts | 308° |
| 2026-04-21 00:43 | 47.44643 | 4.60926 | 38120 ft | 440 kts | 308° |
| 2026-04-21 00:44 | 47.48509 | 4.53921 | 38120 ft | 440 kts | 308° |
| 2026-04-21 00:44 | 47.52390 | 4.46870 | 38130 ft | 441 kts | 308° |
| 2026-04-21 00:45 | 47.58192 | 4.36296 | 38124 ft | 441 kts | 308° |
| 2026-04-21 00:45 | 47.62015 | 4.29306 | 38127 ft | 440 kts | 308° |
| 2026-04-21 00:46 | 47.65867 | 4.22245 | 38125 ft | 440 kts | 308° |
| 2026-04-21 00:46 | 47.69721 | 4.15161 | 38130 ft | 439 kts | 307° |
| 2026-04-21 00:47 | 47.73559 | 4.08090 | 38132 ft | 439 kts | 307° |
| 2026-04-21 00:47 | 47.77376 | 4.01038 | 38129 ft | 439 kts | 307° |
| 2026-04-21 00:48 | 47.81182 | 3.93987 | 38137 ft | 438 kts | 307° |
| 2026-04-21 00:48 | 47.85004 | 3.86888 | 38144 ft | 438 kts | 307° |
| 2026-04-21 00:49 | 47.88820 | 3.79783 | 38138 ft | 438 kts | 307° |
| 2026-04-21 00:49 | 47.92605 | 3.72716 | 38145 ft | 439 kts | 307° |
| 2026-04-21 00:50 | 47.96404 | 3.65605 | 38147 ft | 439 kts | 307° |
| 2026-04-21 00:50 | 48.00215 | 3.58455 | 38141 ft | 439 kts | 307° |
| 2026-04-21 00:51 | 48.04006 | 3.51319 | 38145 ft | 440 kts | 307° |
| 2026-04-21 00:51 | 48.07827 | 3.44110 | 38148 ft | 440 kts | 307° |
| 2026-04-21 00:52 | 48.11631 | 3.36915 | 38153 ft | 441 kts | 307° |
| 2026-04-21 00:52 | 48.13514 | 3.33347 | 38139 ft | 430 kts | 307° |
| 2026-04-21 00:52 | 48.15342 | 3.29881 | 38131 ft | 416 kts | 307° |
| 2026-04-21 00:53 | 48.18857 | 3.23197 | 38145 ft | 410 kts | 307° |
| 2026-04-21 00:53 | 48.22585 | 3.16731 | 38154 ft | 409 kts | 313° |
| 2026-04-21 00:54 | 48.26634 | 3.10706 | 38160 ft | 409 kts | 313° |
| 2026-04-21 00:54 | 48.30063 | 3.04078 | 38148 ft | 398 kts | 292° |
| 2026-04-21 00:55 | 48.31745 | 2.96222 | 38155 ft | 394 kts | 288° |
| 2026-04-21 00:55 | 48.32739 | 2.91481 | 38157 ft | 394 kts | 288° |